<?xml version="1.0" encoding="UTF-8" standalone="no" ?>
<gpx xmlns="http://www.topografix.com/GPX/1/1" xmlns:xsi="http://www.w3.org/2001/XMLSchema-instance" xsi:schemaLocation="http://www.topografix.com/GPX/1/1 http://www.topografix.com/GPX/1/1/gpx.xsd" version="1.1" creator="VisuGPX - https://www.visugpx.com">
  <metadata>
    <name>Entrainement ajoupa</name>
    <desc><![CDATA[circuit attelage Eygalières en passant par la Sariette jusqu'à l'hermitage]]></desc>
  </metadata>
  <trk>
    <name><![CDATA[2017-10-05 17:42:23]]></name>
    <trkseg>
      <trkpt lat="43.83771" lon="4.9371">
        <ele>56.37</ele>
        <time>2017-10-05T12:55:19Z</time>
      </trkpt>
      <trkpt lat="43.8375" lon="4.93709">
        <ele>49.65</ele>
        <time>2017-10-05T12:55:36Z</time>
      </trkpt>
      <trkpt lat="43.83747" lon="4.9371">
        <ele>46.76</ele>
        <time>2017-10-05T12:55:56Z</time>
      </trkpt>
      <trkpt lat="43.83749" lon="4.93713">
        <ele>47.72</ele>
        <time>2017-10-05T12:56:01Z</time>
      </trkpt>
      <trkpt lat="43.83751" lon="4.93726">
        <ele>48.68</ele>
        <time>2017-10-05T12:56:11Z</time>
      </trkpt>
      <trkpt lat="43.83727" lon="4.93739">
        <ele>49.16</ele>
        <time>2017-10-05T12:56:34Z</time>
      </trkpt>
      <trkpt lat="43.83706" lon="4.93751">
        <ele>48.68</ele>
        <time>2017-10-05T12:56:55Z</time>
      </trkpt>
      <trkpt lat="43.83686" lon="4.93755">
        <ele>48.68</ele>
        <time>2017-10-05T12:57:15Z</time>
      </trkpt>
      <trkpt lat="43.83662" lon="4.93758">
        <ele>49.16</ele>
        <time>2017-10-05T12:57:36Z</time>
      </trkpt>
      <trkpt lat="43.83637" lon="4.93761">
        <ele>50.61</ele>
        <time>2017-10-05T12:58:00Z</time>
      </trkpt>
      <trkpt lat="43.83631" lon="4.93745">
        <ele>52.05</ele>
        <time>2017-10-05T12:58:09Z</time>
      </trkpt>
      <trkpt lat="43.83631" lon="4.93742">
        <ele>52.05</ele>
        <time>2017-10-05T12:58:10Z</time>
      </trkpt>
      <trkpt lat="43.83631" lon="4.93739">
        <ele>52.53</ele>
        <time>2017-10-05T12:58:11Z</time>
      </trkpt>
      <trkpt lat="43.83631" lon="4.93736">
        <ele>52.53</ele>
        <time>2017-10-05T12:58:12Z</time>
      </trkpt>
      <trkpt lat="43.83626" lon="4.93689">
        <ele>54.45</ele>
        <time>2017-10-05T12:58:29Z</time>
      </trkpt>
      <trkpt lat="43.83623" lon="4.93625">
        <ele>56.37</ele>
        <time>2017-10-05T12:58:51Z</time>
      </trkpt>
      <trkpt lat="43.8363" lon="4.93564">
        <ele>55.41</ele>
        <time>2017-10-05T12:59:12Z</time>
      </trkpt>
      <trkpt lat="43.83637" lon="4.93498">
        <ele>54.93</ele>
        <time>2017-10-05T12:59:32Z</time>
      </trkpt>
      <trkpt lat="43.83636" lon="4.93437">
        <ele>56.37</ele>
        <time>2017-10-05T12:59:52Z</time>
      </trkpt>
      <trkpt lat="43.83633" lon="4.93419">
        <ele>56.37</ele>
        <time>2017-10-05T12:59:59Z</time>
      </trkpt>
      <trkpt lat="43.83631" lon="4.93418">
        <ele>55.89</ele>
        <time>2017-10-05T13:00:00Z</time>
      </trkpt>
      <trkpt lat="43.83629" lon="4.93417">
        <ele>55.89</ele>
        <time>2017-10-05T13:00:01Z</time>
      </trkpt>
      <trkpt lat="43.83626" lon="4.93416">
        <ele>55.41</ele>
        <time>2017-10-05T13:00:02Z</time>
      </trkpt>
      <trkpt lat="43.83624" lon="4.93416">
        <ele>55.41</ele>
        <time>2017-10-05T13:00:03Z</time>
      </trkpt>
      <trkpt lat="43.83621" lon="4.93416">
        <ele>55.41</ele>
        <time>2017-10-05T13:00:04Z</time>
      </trkpt>
      <trkpt lat="43.83568" lon="4.93411">
        <ele>53.49</ele>
        <time>2017-10-05T13:00:24Z</time>
      </trkpt>
      <trkpt lat="43.83534" lon="4.93409">
        <ele>53.49</ele>
        <time>2017-10-05T13:00:37Z</time>
      </trkpt>
      <trkpt lat="43.83514" lon="4.93387">
        <ele>53.97</ele>
        <time>2017-10-05T13:00:50Z</time>
      </trkpt>
      <trkpt lat="43.83515" lon="4.9331">
        <ele>56.37</ele>
        <time>2017-10-05T13:01:13Z</time>
      </trkpt>
      <trkpt lat="43.83492" lon="4.93269">
        <ele>54.45</ele>
        <time>2017-10-05T13:01:29Z</time>
      </trkpt>
      <trkpt lat="43.8349" lon="4.9327">
        <ele>54.93</ele>
        <time>2017-10-05T13:01:30Z</time>
      </trkpt>
      <trkpt lat="43.83488" lon="4.93271">
        <ele>54.93</ele>
        <time>2017-10-05T13:01:31Z</time>
      </trkpt>
      <trkpt lat="43.83486" lon="4.93273">
        <ele>54.93</ele>
        <time>2017-10-05T13:01:32Z</time>
      </trkpt>
      <trkpt lat="43.83484" lon="4.93275">
        <ele>54.93</ele>
        <time>2017-10-05T13:01:33Z</time>
      </trkpt>
      <trkpt lat="43.83467" lon="4.93286">
        <ele>53.97</ele>
        <time>2017-10-05T13:01:42Z</time>
      </trkpt>
      <trkpt lat="43.83465" lon="4.93286">
        <ele>54.45</ele>
        <time>2017-10-05T13:01:43Z</time>
      </trkpt>
      <trkpt lat="43.83426" lon="4.93306">
        <ele>54.45</ele>
        <time>2017-10-05T13:01:57Z</time>
      </trkpt>
      <trkpt lat="43.83367" lon="4.9334">
        <ele>53.01</ele>
        <time>2017-10-05T13:02:19Z</time>
      </trkpt>
      <trkpt lat="43.83346" lon="4.93352">
        <ele>52.53</ele>
        <time>2017-10-05T13:02:28Z</time>
      </trkpt>
      <trkpt lat="43.83312" lon="4.93372">
        <ele>53.49</ele>
        <time>2017-10-05T13:02:41Z</time>
      </trkpt>
      <trkpt lat="43.83284" lon="4.93388">
        <ele>53.97</ele>
        <time>2017-10-05T13:02:53Z</time>
      </trkpt>
      <trkpt lat="43.83239" lon="4.93414">
        <ele>54.45</ele>
        <time>2017-10-05T13:03:11Z</time>
      </trkpt>
      <trkpt lat="43.83228" lon="4.93441">
        <ele>53.97</ele>
        <time>2017-10-05T13:03:22Z</time>
      </trkpt>
      <trkpt lat="43.83196" lon="4.93463">
        <ele>54.93</ele>
        <time>2017-10-05T13:03:35Z</time>
      </trkpt>
      <trkpt lat="43.8314" lon="4.93491">
        <ele>54.45</ele>
        <time>2017-10-05T13:03:55Z</time>
      </trkpt>
      <trkpt lat="43.83107" lon="4.9351">
        <ele>53.97</ele>
        <time>2017-10-05T13:04:14Z</time>
      </trkpt>
      <trkpt lat="43.83106" lon="4.93512">
        <ele>53.97</ele>
        <time>2017-10-05T13:04:17Z</time>
      </trkpt>
      <trkpt lat="43.83102" lon="4.93521">
        <ele>54.45</ele>
        <time>2017-10-05T13:04:31Z</time>
      </trkpt>
      <trkpt lat="43.83116" lon="4.93564">
        <ele>54.45</ele>
        <time>2017-10-05T13:04:42Z</time>
      </trkpt>
      <trkpt lat="43.83149" lon="4.93636">
        <ele>53.01</ele>
        <time>2017-10-05T13:05:00Z</time>
      </trkpt>
      <trkpt lat="43.83177" lon="4.93698">
        <ele>52.53</ele>
        <time>2017-10-05T13:05:17Z</time>
      </trkpt>
      <trkpt lat="43.83206" lon="4.9376">
        <ele>52.53</ele>
        <time>2017-10-05T13:05:34Z</time>
      </trkpt>
      <trkpt lat="43.83233" lon="4.93817">
        <ele>53.01</ele>
        <time>2017-10-05T13:05:51Z</time>
      </trkpt>
      <trkpt lat="43.83263" lon="4.93879">
        <ele>53.49</ele>
        <time>2017-10-05T13:06:09Z</time>
      </trkpt>
      <trkpt lat="43.83298" lon="4.93958">
        <ele>54.93</ele>
        <time>2017-10-05T13:06:34Z</time>
      </trkpt>
      <trkpt lat="43.83319" lon="4.94032">
        <ele>55.41</ele>
        <time>2017-10-05T13:06:54Z</time>
      </trkpt>
      <trkpt lat="43.83342" lon="4.94121">
        <ele>56.37</ele>
        <time>2017-10-05T13:07:18Z</time>
      </trkpt>
      <trkpt lat="43.83351" lon="4.94168">
        <ele>55.89</ele>
        <time>2017-10-05T13:07:31Z</time>
      </trkpt>
      <trkpt lat="43.8335" lon="4.94171">
        <ele>55.41</ele>
        <time>2017-10-05T13:07:32Z</time>
      </trkpt>
      <trkpt lat="43.83349" lon="4.94174">
        <ele>55.41</ele>
        <time>2017-10-05T13:07:33Z</time>
      </trkpt>
      <trkpt lat="43.83344" lon="4.94178">
        <ele>55.89</ele>
        <time>2017-10-05T13:07:35Z</time>
      </trkpt>
      <trkpt lat="43.83298" lon="4.94195">
        <ele>55.41</ele>
        <time>2017-10-05T13:07:49Z</time>
      </trkpt>
      <trkpt lat="43.83243" lon="4.94214">
        <ele>55.41</ele>
        <time>2017-10-05T13:08:07Z</time>
      </trkpt>
      <trkpt lat="43.83197" lon="4.94208">
        <ele>55.89</ele>
        <time>2017-10-05T13:08:22Z</time>
      </trkpt>
      <trkpt lat="43.83156" lon="4.94225">
        <ele>55.89</ele>
        <time>2017-10-05T13:08:36Z</time>
      </trkpt>
      <trkpt lat="43.83153" lon="4.94268">
        <ele>55.41</ele>
        <time>2017-10-05T13:08:46Z</time>
      </trkpt>
      <trkpt lat="43.83159" lon="4.94345">
        <ele>55.89</ele>
        <time>2017-10-05T13:09:06Z</time>
      </trkpt>
      <trkpt lat="43.83167" lon="4.94375">
        <ele>56.37</ele>
        <time>2017-10-05T13:09:16Z</time>
      </trkpt>
      <trkpt lat="43.83165" lon="4.94383">
        <ele>56.86</ele>
        <time>2017-10-05T13:09:19Z</time>
      </trkpt>
      <trkpt lat="43.83162" lon="4.94384">
        <ele>56.86</ele>
        <time>2017-10-05T13:09:20Z</time>
      </trkpt>
      <trkpt lat="43.83161" lon="4.94385">
        <ele>56.86</ele>
        <time>2017-10-05T13:09:21Z</time>
      </trkpt>
      <trkpt lat="43.83158" lon="4.94385">
        <ele>57.34</ele>
        <time>2017-10-05T13:09:22Z</time>
      </trkpt>
      <trkpt lat="43.83111" lon="4.94385">
        <ele>58.78</ele>
        <time>2017-10-05T13:09:38Z</time>
      </trkpt>
      <trkpt lat="43.83076" lon="4.94371">
        <ele>58.3</ele>
        <time>2017-10-05T13:09:49Z</time>
      </trkpt>
      <trkpt lat="43.83023" lon="4.94338">
        <ele>58.78</ele>
        <time>2017-10-05T13:10:04Z</time>
      </trkpt>
      <trkpt lat="43.82972" lon="4.94303">
        <ele>59.74</ele>
        <time>2017-10-05T13:10:20Z</time>
      </trkpt>
      <trkpt lat="43.82952" lon="4.94285">
        <ele>61.18</ele>
        <time>2017-10-05T13:10:29Z</time>
      </trkpt>
      <trkpt lat="43.82946" lon="4.94277">
        <ele>63.58</ele>
        <time>2017-10-05T13:10:34Z</time>
      </trkpt>
      <trkpt lat="43.8292" lon="4.94245">
        <ele>66.47</ele>
        <time>2017-10-05T13:10:46Z</time>
      </trkpt>
      <trkpt lat="43.82889" lon="4.94213">
        <ele>67.43</ele>
        <time>2017-10-05T13:10:57Z</time>
      </trkpt>
      <trkpt lat="43.82849" lon="4.94159">
        <ele>66.95</ele>
        <time>2017-10-05T13:11:13Z</time>
      </trkpt>
      <trkpt lat="43.82818" lon="4.94111">
        <ele>67.43</ele>
        <time>2017-10-05T13:11:26Z</time>
      </trkpt>
      <trkpt lat="43.82781" lon="4.94055">
        <ele>67.43</ele>
        <time>2017-10-05T13:11:40Z</time>
      </trkpt>
      <trkpt lat="43.82727" lon="4.93983">
        <ele>59.74</ele>
        <time>2017-10-05T13:11:56Z</time>
      </trkpt>
      <trkpt lat="43.82704" lon="4.93935">
        <ele>57.34</ele>
        <time>2017-10-05T13:12:07Z</time>
      </trkpt>
      <trkpt lat="43.82693" lon="4.93932">
        <ele>57.34</ele>
        <time>2017-10-05T13:12:11Z</time>
      </trkpt>
      <trkpt lat="43.82636" lon="4.93946">
        <ele>57.34</ele>
        <time>2017-10-05T13:12:28Z</time>
      </trkpt>
      <trkpt lat="43.82589" lon="4.93957">
        <ele>55.89</ele>
        <time>2017-10-05T13:12:41Z</time>
      </trkpt>
      <trkpt lat="43.8255" lon="4.93966">
        <ele>55.89</ele>
        <time>2017-10-05T13:12:54Z</time>
      </trkpt>
      <trkpt lat="43.82498" lon="4.93978">
        <ele>55.89</ele>
        <time>2017-10-05T13:13:12Z</time>
      </trkpt>
      <trkpt lat="43.8244" lon="4.93982">
        <ele>56.37</ele>
        <time>2017-10-05T13:13:32Z</time>
      </trkpt>
      <trkpt lat="43.82396" lon="4.93964">
        <ele>54.45</ele>
        <time>2017-10-05T13:13:46Z</time>
      </trkpt>
      <trkpt lat="43.82371" lon="4.9395">
        <ele>51.09</ele>
        <time>2017-10-05T13:13:56Z</time>
      </trkpt>
      <trkpt lat="43.82333" lon="4.93923">
        <ele>51.09</ele>
        <time>2017-10-05T13:14:09Z</time>
      </trkpt>
      <trkpt lat="43.82286" lon="4.93887">
        <ele>52.05</ele>
        <time>2017-10-05T13:14:28Z</time>
      </trkpt>
      <trkpt lat="43.82253" lon="4.93853">
        <ele>53.01</ele>
        <time>2017-10-05T13:14:42Z</time>
      </trkpt>
      <trkpt lat="43.8222" lon="4.93817">
        <ele>53.01</ele>
        <time>2017-10-05T13:15:00Z</time>
      </trkpt>
      <trkpt lat="43.82214" lon="4.93813">
        <ele>53.01</ele>
        <time>2017-10-05T13:15:14Z</time>
      </trkpt>
      <trkpt lat="43.82208" lon="4.93808">
        <ele>53.01</ele>
        <time>2017-10-05T13:15:19Z</time>
      </trkpt>
      <trkpt lat="43.82195" lon="4.93833">
        <ele>55.41</ele>
        <time>2017-10-05T13:15:34Z</time>
      </trkpt>
      <trkpt lat="43.82183" lon="4.93874">
        <ele>57.34</ele>
        <time>2017-10-05T13:15:58Z</time>
      </trkpt>
      <trkpt lat="43.82175" lon="4.93895">
        <ele>56.37</ele>
        <time>2017-10-05T13:16:12Z</time>
      </trkpt>
      <trkpt lat="43.82168" lon="4.93919">
        <ele>56.37</ele>
        <time>2017-10-05T13:16:25Z</time>
      </trkpt>
      <trkpt lat="43.8213" lon="4.93977">
        <ele>54.45</ele>
        <time>2017-10-05T13:16:43Z</time>
      </trkpt>
      <trkpt lat="43.82096" lon="4.94034">
        <ele>53.97</ele>
        <time>2017-10-05T13:17:02Z</time>
      </trkpt>
      <trkpt lat="43.82054" lon="4.94098">
        <ele>54.93</ele>
        <time>2017-10-05T13:17:25Z</time>
      </trkpt>
      <trkpt lat="43.8201" lon="4.9413">
        <ele>54.45</ele>
        <time>2017-10-05T13:17:43Z</time>
      </trkpt>
      <trkpt lat="43.81953" lon="4.9417">
        <ele>54.93</ele>
        <time>2017-10-05T13:18:03Z</time>
      </trkpt>
      <trkpt lat="43.81883" lon="4.94217">
        <ele>54.93</ele>
        <time>2017-10-05T13:18:29Z</time>
      </trkpt>
      <trkpt lat="43.81815" lon="4.94261">
        <ele>54.93</ele>
        <time>2017-10-05T13:18:55Z</time>
      </trkpt>
      <trkpt lat="43.8181" lon="4.94261">
        <ele>54.93</ele>
        <time>2017-10-05T13:18:57Z</time>
      </trkpt>
      <trkpt lat="43.81808" lon="4.94259">
        <ele>54.93</ele>
        <time>2017-10-05T13:18:58Z</time>
      </trkpt>
      <trkpt lat="43.81806" lon="4.94255">
        <ele>54.45</ele>
        <time>2017-10-05T13:18:59Z</time>
      </trkpt>
      <trkpt lat="43.81805" lon="4.94251">
        <ele>54.45</ele>
        <time>2017-10-05T13:19:00Z</time>
      </trkpt>
      <trkpt lat="43.81805" lon="4.94246">
        <ele>54.45</ele>
        <time>2017-10-05T13:19:01Z</time>
      </trkpt>
      <trkpt lat="43.81804" lon="4.94242">
        <ele>54.45</ele>
        <time>2017-10-05T13:19:02Z</time>
      </trkpt>
      <trkpt lat="43.81802" lon="4.94143">
        <ele>55.89</ele>
        <time>2017-10-05T13:19:21Z</time>
      </trkpt>
      <trkpt lat="43.818" lon="4.94051">
        <ele>56.86</ele>
        <time>2017-10-05T13:19:40Z</time>
      </trkpt>
      <trkpt lat="43.81799" lon="4.93987">
        <ele>59.26</ele>
        <time>2017-10-05T13:19:54Z</time>
      </trkpt>
      <trkpt lat="43.81794" lon="4.93931">
        <ele>58.78</ele>
        <time>2017-10-05T13:20:10Z</time>
      </trkpt>
      <trkpt lat="43.81781" lon="4.93876">
        <ele>57.82</ele>
        <time>2017-10-05T13:20:25Z</time>
      </trkpt>
      <trkpt lat="43.81762" lon="4.938">
        <ele>56.37</ele>
        <time>2017-10-05T13:20:42Z</time>
      </trkpt>
      <trkpt lat="43.81744" lon="4.93714">
        <ele>55.89</ele>
        <time>2017-10-05T13:21:06Z</time>
      </trkpt>
      <trkpt lat="43.81731" lon="4.93673">
        <ele>55.41</ele>
        <time>2017-10-05T13:21:18Z</time>
      </trkpt>
      <trkpt lat="43.81717" lon="4.93614">
        <ele>55.89</ele>
        <time>2017-10-05T13:21:32Z</time>
      </trkpt>
      <trkpt lat="43.81694" lon="4.9354">
        <ele>54.93</ele>
        <time>2017-10-05T13:21:51Z</time>
      </trkpt>
      <trkpt lat="43.8168" lon="4.9349">
        <ele>54.45</ele>
        <time>2017-10-05T13:22:04Z</time>
      </trkpt>
      <trkpt lat="43.81657" lon="4.93414">
        <ele>56.37</ele>
        <time>2017-10-05T13:22:23Z</time>
      </trkpt>
      <trkpt lat="43.81641" lon="4.93355">
        <ele>56.37</ele>
        <time>2017-10-05T13:22:38Z</time>
      </trkpt>
      <trkpt lat="43.81619" lon="4.933">
        <ele>56.86</ele>
        <time>2017-10-05T13:22:53Z</time>
      </trkpt>
      <trkpt lat="43.81601" lon="4.93242">
        <ele>56.86</ele>
        <time>2017-10-05T13:23:07Z</time>
      </trkpt>
      <trkpt lat="43.81581" lon="4.93183">
        <ele>53.97</ele>
        <time>2017-10-05T13:23:21Z</time>
      </trkpt>
      <trkpt lat="43.81558" lon="4.9311">
        <ele>54.45</ele>
        <time>2017-10-05T13:23:39Z</time>
      </trkpt>
      <trkpt lat="43.81543" lon="4.93058">
        <ele>54.45</ele>
        <time>2017-10-05T13:23:52Z</time>
      </trkpt>
      <trkpt lat="43.8153" lon="4.92999">
        <ele>55.41</ele>
        <time>2017-10-05T13:24:05Z</time>
      </trkpt>
      <trkpt lat="43.81514" lon="4.92944">
        <ele>55.89</ele>
        <time>2017-10-05T13:24:18Z</time>
      </trkpt>
      <trkpt lat="43.81497" lon="4.92887">
        <ele>54.93</ele>
        <time>2017-10-05T13:24:32Z</time>
      </trkpt>
      <trkpt lat="43.81478" lon="4.92822">
        <ele>53.97</ele>
        <time>2017-10-05T13:24:49Z</time>
      </trkpt>
      <trkpt lat="43.81465" lon="4.92777">
        <ele>52.05</ele>
        <time>2017-10-05T13:25:03Z</time>
      </trkpt>
      <trkpt lat="43.81457" lon="4.92739">
        <ele>49.65</ele>
        <time>2017-10-05T13:25:14Z</time>
      </trkpt>
      <trkpt lat="43.81453" lon="4.92712">
        <ele>48.68</ele>
        <time>2017-10-05T13:25:23Z</time>
      </trkpt>
      <trkpt lat="43.81452" lon="4.92708">
        <ele>49.16</ele>
        <time>2017-10-05T13:25:24Z</time>
      </trkpt>
      <trkpt lat="43.81451" lon="4.92704">
        <ele>49.16</ele>
        <time>2017-10-05T13:25:25Z</time>
      </trkpt>
      <trkpt lat="43.81423" lon="4.92613">
        <ele>52.53</ele>
        <time>2017-10-05T13:25:42Z</time>
      </trkpt>
      <trkpt lat="43.814" lon="4.92522">
        <ele>53.97</ele>
        <time>2017-10-05T13:26:04Z</time>
      </trkpt>
      <trkpt lat="43.8138" lon="4.92451">
        <ele>53.01</ele>
        <time>2017-10-05T13:26:25Z</time>
      </trkpt>
      <trkpt lat="43.81377" lon="4.92451">
        <ele>53.01</ele>
        <time>2017-10-05T13:26:27Z</time>
      </trkpt>
      <trkpt lat="43.81376" lon="4.92453">
        <ele>53.01</ele>
        <time>2017-10-05T13:26:28Z</time>
      </trkpt>
      <trkpt lat="43.81375" lon="4.92455">
        <ele>53.01</ele>
        <time>2017-10-05T13:26:29Z</time>
      </trkpt>
      <trkpt lat="43.81375" lon="4.92458">
        <ele>53.01</ele>
        <time>2017-10-05T13:26:30Z</time>
      </trkpt>
      <trkpt lat="43.81374" lon="4.9246">
        <ele>53.01</ele>
        <time>2017-10-05T13:26:31Z</time>
      </trkpt>
      <trkpt lat="43.81372" lon="4.92464">
        <ele>53.49</ele>
        <time>2017-10-05T13:26:32Z</time>
      </trkpt>
      <trkpt lat="43.81371" lon="4.92467">
        <ele>53.97</ele>
        <time>2017-10-05T13:26:33Z</time>
      </trkpt>
      <trkpt lat="43.8137" lon="4.92471">
        <ele>54.45</ele>
        <time>2017-10-05T13:26:34Z</time>
      </trkpt>
      <trkpt lat="43.81368" lon="4.92475">
        <ele>54.93</ele>
        <time>2017-10-05T13:26:35Z</time>
      </trkpt>
      <trkpt lat="43.81367" lon="4.92478">
        <ele>55.89</ele>
        <time>2017-10-05T13:26:36Z</time>
      </trkpt>
      <trkpt lat="43.81366" lon="4.92482">
        <ele>56.37</ele>
        <time>2017-10-05T13:26:37Z</time>
      </trkpt>
      <trkpt lat="43.81338" lon="4.92539">
        <ele>59.74</ele>
        <time>2017-10-05T13:26:53Z</time>
      </trkpt>
      <trkpt lat="43.81311" lon="4.92598">
        <ele>57.34</ele>
        <time>2017-10-05T13:27:10Z</time>
      </trkpt>
      <trkpt lat="43.81292" lon="4.9264">
        <ele>56.86</ele>
        <time>2017-10-05T13:27:23Z</time>
      </trkpt>
      <trkpt lat="43.81255" lon="4.92716">
        <ele>56.86</ele>
        <time>2017-10-05T13:27:47Z</time>
      </trkpt>
      <trkpt lat="43.81224" lon="4.92784">
        <ele>53.97</ele>
        <time>2017-10-05T13:28:08Z</time>
      </trkpt>
      <trkpt lat="43.81203" lon="4.92829">
        <ele>54.93</ele>
        <time>2017-10-05T13:28:24Z</time>
      </trkpt>
      <trkpt lat="43.81176" lon="4.92876">
        <ele>59.26</ele>
        <time>2017-10-05T13:28:39Z</time>
      </trkpt>
      <trkpt lat="43.81124" lon="4.92935">
        <ele>57.82</ele>
        <time>2017-10-05T13:29:01Z</time>
      </trkpt>
      <trkpt lat="43.81069" lon="4.92995">
        <ele>54.45</ele>
        <time>2017-10-05T13:29:24Z</time>
      </trkpt>
      <trkpt lat="43.81021" lon="4.93046">
        <ele>55.41</ele>
        <time>2017-10-05T13:29:44Z</time>
      </trkpt>
      <trkpt lat="43.80967" lon="4.93091">
        <ele>54.45</ele>
        <time>2017-10-05T13:30:06Z</time>
      </trkpt>
      <trkpt lat="43.80924" lon="4.93109">
        <ele>56.37</ele>
        <time>2017-10-05T13:30:22Z</time>
      </trkpt>
      <trkpt lat="43.80866" lon="4.9313">
        <ele>54.93</ele>
        <time>2017-10-05T13:30:41Z</time>
      </trkpt>
      <trkpt lat="43.80788" lon="4.93161">
        <ele>54.45</ele>
        <time>2017-10-05T13:31:06Z</time>
      </trkpt>
      <trkpt lat="43.80728" lon="4.93187">
        <ele>53.01</ele>
        <time>2017-10-05T13:31:25Z</time>
      </trkpt>
      <trkpt lat="43.80682" lon="4.93199">
        <ele>53.49</ele>
        <time>2017-10-05T13:31:38Z</time>
      </trkpt>
      <trkpt lat="43.80623" lon="4.93204">
        <ele>54.45</ele>
        <time>2017-10-05T13:31:55Z</time>
      </trkpt>
      <trkpt lat="43.80589" lon="4.93212">
        <ele>55.89</ele>
        <time>2017-10-05T13:32:11Z</time>
      </trkpt>
      <trkpt lat="43.80561" lon="4.93222">
        <ele>57.82</ele>
        <time>2017-10-05T13:32:30Z</time>
      </trkpt>
      <trkpt lat="43.80533" lon="4.9323">
        <ele>56.86</ele>
        <time>2017-10-05T13:32:43Z</time>
      </trkpt>
      <trkpt lat="43.80489" lon="4.93247">
        <ele>54.45</ele>
        <time>2017-10-05T13:32:59Z</time>
      </trkpt>
      <trkpt lat="43.80437" lon="4.9328">
        <ele>54.93</ele>
        <time>2017-10-05T13:33:20Z</time>
      </trkpt>
      <trkpt lat="43.80385" lon="4.93312">
        <ele>54.93</ele>
        <time>2017-10-05T13:33:40Z</time>
      </trkpt>
      <trkpt lat="43.80334" lon="4.93344">
        <ele>56.37</ele>
        <time>2017-10-05T13:34:00Z</time>
      </trkpt>
      <trkpt lat="43.80278" lon="4.93379">
        <ele>55.41</ele>
        <time>2017-10-05T13:34:22Z</time>
      </trkpt>
      <trkpt lat="43.80231" lon="4.93415">
        <ele>53.49</ele>
        <time>2017-10-05T13:34:41Z</time>
      </trkpt>
      <trkpt lat="43.80184" lon="4.93437">
        <ele>53.97</ele>
        <time>2017-10-05T13:34:58Z</time>
      </trkpt>
      <trkpt lat="43.80136" lon="4.93463">
        <ele>54.45</ele>
        <time>2017-10-05T13:35:16Z</time>
      </trkpt>
      <trkpt lat="43.80095" lon="4.93504">
        <ele>52.53</ele>
        <time>2017-10-05T13:35:34Z</time>
      </trkpt>
      <trkpt lat="43.80078" lon="4.93515">
        <ele>53.01</ele>
        <time>2017-10-05T13:35:44Z</time>
      </trkpt>
      <trkpt lat="43.80076" lon="4.93514">
        <ele>53.49</ele>
        <time>2017-10-05T13:35:45Z</time>
      </trkpt>
      <trkpt lat="43.80075" lon="4.93512">
        <ele>53.49</ele>
        <time>2017-10-05T13:35:46Z</time>
      </trkpt>
      <trkpt lat="43.80074" lon="4.93508">
        <ele>53.49</ele>
        <time>2017-10-05T13:35:47Z</time>
      </trkpt>
      <trkpt lat="43.80074" lon="4.93505">
        <ele>53.49</ele>
        <time>2017-10-05T13:35:48Z</time>
      </trkpt>
      <trkpt lat="43.80073" lon="4.93501">
        <ele>53.01</ele>
        <time>2017-10-05T13:35:49Z</time>
      </trkpt>
      <trkpt lat="43.80064" lon="4.93441">
        <ele>52.05</ele>
        <time>2017-10-05T13:36:04Z</time>
      </trkpt>
      <trkpt lat="43.80059" lon="4.93378">
        <ele>51.57</ele>
        <time>2017-10-05T13:36:20Z</time>
      </trkpt>
      <trkpt lat="43.80055" lon="4.93301">
        <ele>50.13</ele>
        <time>2017-10-05T13:36:39Z</time>
      </trkpt>
      <trkpt lat="43.80054" lon="4.93243">
        <ele>49.16</ele>
        <time>2017-10-05T13:36:57Z</time>
      </trkpt>
      <trkpt lat="43.80053" lon="4.93234">
        <ele>50.13</ele>
        <time>2017-10-05T13:37:01Z</time>
      </trkpt>
      <trkpt lat="43.80052" lon="4.93233">
        <ele>50.13</ele>
        <time>2017-10-05T13:37:02Z</time>
      </trkpt>
      <trkpt lat="43.80051" lon="4.93232">
        <ele>50.13</ele>
        <time>2017-10-05T13:37:03Z</time>
      </trkpt>
      <trkpt lat="43.8005" lon="4.93232">
        <ele>50.13</ele>
        <time>2017-10-05T13:37:04Z</time>
      </trkpt>
      <trkpt lat="43.80048" lon="4.93231">
        <ele>50.61</ele>
        <time>2017-10-05T13:37:05Z</time>
      </trkpt>
      <trkpt lat="43.80046" lon="4.93232">
        <ele>50.61</ele>
        <time>2017-10-05T13:37:06Z</time>
      </trkpt>
      <trkpt lat="43.80044" lon="4.93233">
        <ele>51.09</ele>
        <time>2017-10-05T13:37:07Z</time>
      </trkpt>
      <trkpt lat="43.80042" lon="4.93234">
        <ele>51.09</ele>
        <time>2017-10-05T13:37:08Z</time>
      </trkpt>
      <trkpt lat="43.80005" lon="4.93263">
        <ele>51.57</ele>
        <time>2017-10-05T13:37:25Z</time>
      </trkpt>
      <trkpt lat="43.79964" lon="4.93294">
        <ele>52.53</ele>
        <time>2017-10-05T13:37:44Z</time>
      </trkpt>
      <trkpt lat="43.79915" lon="4.93331">
        <ele>52.53</ele>
        <time>2017-10-05T13:38:07Z</time>
      </trkpt>
      <trkpt lat="43.7987" lon="4.93365">
        <ele>52.53</ele>
        <time>2017-10-05T13:38:27Z</time>
      </trkpt>
      <trkpt lat="43.79831" lon="4.93397">
        <ele>52.05</ele>
        <time>2017-10-05T13:38:45Z</time>
      </trkpt>
      <trkpt lat="43.79782" lon="4.93435">
        <ele>52.05</ele>
        <time>2017-10-05T13:39:07Z</time>
      </trkpt>
      <trkpt lat="43.79733" lon="4.93471">
        <ele>51.09</ele>
        <time>2017-10-05T13:39:28Z</time>
      </trkpt>
      <trkpt lat="43.797" lon="4.93496">
        <ele>51.09</ele>
        <time>2017-10-05T13:39:46Z</time>
      </trkpt>
      <trkpt lat="43.79694" lon="4.93503">
        <ele>51.09</ele>
        <time>2017-10-05T13:40:19Z</time>
      </trkpt>
      <trkpt lat="43.79655" lon="4.93533">
        <ele>52.53</ele>
        <time>2017-10-05T13:40:38Z</time>
      </trkpt>
      <trkpt lat="43.79617" lon="4.93563">
        <ele>52.53</ele>
        <time>2017-10-05T13:40:56Z</time>
      </trkpt>
      <trkpt lat="43.79575" lon="4.93596">
        <ele>53.01</ele>
        <time>2017-10-05T13:41:16Z</time>
      </trkpt>
      <trkpt lat="43.79515" lon="4.93631">
        <ele>54.45</ele>
        <time>2017-10-05T13:41:42Z</time>
      </trkpt>
      <trkpt lat="43.79466" lon="4.9366">
        <ele>54.93</ele>
        <time>2017-10-05T13:42:03Z</time>
      </trkpt>
      <trkpt lat="43.79462" lon="4.937">
        <ele>54.45</ele>
        <time>2017-10-05T13:42:15Z</time>
      </trkpt>
      <trkpt lat="43.7947" lon="4.93768">
        <ele>57.34</ele>
        <time>2017-10-05T13:42:34Z</time>
      </trkpt>
      <trkpt lat="43.79476" lon="4.93826">
        <ele>59.26</ele>
        <time>2017-10-05T13:42:50Z</time>
      </trkpt>
      <trkpt lat="43.79482" lon="4.93889">
        <ele>60.22</ele>
        <time>2017-10-05T13:43:08Z</time>
      </trkpt>
      <trkpt lat="43.79489" lon="4.93958">
        <ele>60.7</ele>
        <time>2017-10-05T13:43:27Z</time>
      </trkpt>
      <trkpt lat="43.79496" lon="4.94021">
        <ele>60.7</ele>
        <time>2017-10-05T13:43:44Z</time>
      </trkpt>
      <trkpt lat="43.79502" lon="4.94084">
        <ele>61.18</ele>
        <time>2017-10-05T13:44:02Z</time>
      </trkpt>
      <trkpt lat="43.79497" lon="4.94132">
        <ele>60.22</ele>
        <time>2017-10-05T13:44:18Z</time>
      </trkpt>
      <trkpt lat="43.79466" lon="4.94201">
        <ele>55.89</ele>
        <time>2017-10-05T13:44:41Z</time>
      </trkpt>
      <trkpt lat="43.79438" lon="4.94258">
        <ele>54.93</ele>
        <time>2017-10-05T13:45:02Z</time>
      </trkpt>
      <trkpt lat="43.79406" lon="4.94307">
        <ele>53.49</ele>
        <time>2017-10-05T13:45:22Z</time>
      </trkpt>
      <trkpt lat="43.79375" lon="4.94353">
        <ele>55.41</ele>
        <time>2017-10-05T13:45:41Z</time>
      </trkpt>
      <trkpt lat="43.79351" lon="4.94384">
        <ele>56.86</ele>
        <time>2017-10-05T13:45:55Z</time>
      </trkpt>
      <trkpt lat="43.79319" lon="4.94394">
        <ele>57.34</ele>
        <time>2017-10-05T13:46:11Z</time>
      </trkpt>
      <trkpt lat="43.79282" lon="4.94406">
        <ele>56.37</ele>
        <time>2017-10-05T13:46:26Z</time>
      </trkpt>
      <trkpt lat="43.79232" lon="4.94427">
        <ele>55.89</ele>
        <time>2017-10-05T13:46:47Z</time>
      </trkpt>
      <trkpt lat="43.79201" lon="4.9444">
        <ele>54.93</ele>
        <time>2017-10-05T13:47:04Z</time>
      </trkpt>
      <trkpt lat="43.79175" lon="4.94453">
        <ele>54.45</ele>
        <time>2017-10-05T13:47:19Z</time>
      </trkpt>
      <trkpt lat="43.79129" lon="4.94474">
        <ele>54.45</ele>
        <time>2017-10-05T13:47:39Z</time>
      </trkpt>
      <trkpt lat="43.79081" lon="4.94491">
        <ele>56.86</ele>
        <time>2017-10-05T13:48:00Z</time>
      </trkpt>
      <trkpt lat="43.79039" lon="4.94494">
        <ele>55.41</ele>
        <time>2017-10-05T13:48:17Z</time>
      </trkpt>
      <trkpt lat="43.78994" lon="4.94495">
        <ele>55.89</ele>
        <time>2017-10-05T13:48:34Z</time>
      </trkpt>
      <trkpt lat="43.78939" lon="4.94507">
        <ele>56.37</ele>
        <time>2017-10-05T13:48:54Z</time>
      </trkpt>
      <trkpt lat="43.78884" lon="4.94519">
        <ele>56.37</ele>
        <time>2017-10-05T13:49:16Z</time>
      </trkpt>
      <trkpt lat="43.78831" lon="4.94529">
        <ele>55.89</ele>
        <time>2017-10-05T13:49:38Z</time>
      </trkpt>
      <trkpt lat="43.78803" lon="4.94534">
        <ele>56.86</ele>
        <time>2017-10-05T13:49:57Z</time>
      </trkpt>
      <trkpt lat="43.78782" lon="4.94544">
        <ele>58.3</ele>
        <time>2017-10-05T13:50:16Z</time>
      </trkpt>
      <trkpt lat="43.78782" lon="4.94544">
        <ele>58.78</ele>
        <time>2017-10-05T13:50:20Z</time>
      </trkpt>
      <trkpt lat="43.78781" lon="4.94543">
        <ele>58.3</ele>
        <time>2017-10-05T13:50:21Z</time>
      </trkpt>
      <trkpt lat="43.7878" lon="4.94543">
        <ele>58.3</ele>
        <time>2017-10-05T13:50:22Z</time>
      </trkpt>
      <trkpt lat="43.78778" lon="4.94542">
        <ele>57.82</ele>
        <time>2017-10-05T13:50:23Z</time>
      </trkpt>
      <trkpt lat="43.78777" lon="4.94541">
        <ele>57.82</ele>
        <time>2017-10-05T13:50:24Z</time>
      </trkpt>
      <trkpt lat="43.78776" lon="4.94541">
        <ele>57.34</ele>
        <time>2017-10-05T13:50:25Z</time>
      </trkpt>
      <trkpt lat="43.78774" lon="4.9454">
        <ele>57.34</ele>
        <time>2017-10-05T13:50:26Z</time>
      </trkpt>
      <trkpt lat="43.78773" lon="4.9454">
        <ele>57.34</ele>
        <time>2017-10-05T13:50:27Z</time>
      </trkpt>
      <trkpt lat="43.78771" lon="4.9454">
        <ele>57.34</ele>
        <time>2017-10-05T13:50:28Z</time>
      </trkpt>
      <trkpt lat="43.78741" lon="4.94546">
        <ele>59.74</ele>
        <time>2017-10-05T13:50:50Z</time>
      </trkpt>
      <trkpt lat="43.78732" lon="4.94548">
        <ele>58.3</ele>
        <time>2017-10-05T13:51:07Z</time>
      </trkpt>
      <trkpt lat="43.78716" lon="4.94549">
        <ele>57.82</ele>
        <time>2017-10-05T13:51:19Z</time>
      </trkpt>
      <trkpt lat="43.78705" lon="4.94551">
        <ele>57.82</ele>
        <time>2017-10-05T13:51:30Z</time>
      </trkpt>
      <trkpt lat="43.78669" lon="4.94561">
        <ele>58.3</ele>
        <time>2017-10-05T13:51:46Z</time>
      </trkpt>
      <trkpt lat="43.7863" lon="4.94573">
        <ele>59.26</ele>
        <time>2017-10-05T13:52:02Z</time>
      </trkpt>
      <trkpt lat="43.78591" lon="4.94585">
        <ele>60.7</ele>
        <time>2017-10-05T13:52:18Z</time>
      </trkpt>
      <trkpt lat="43.78548" lon="4.94597">
        <ele>60.22</ele>
        <time>2017-10-05T13:52:35Z</time>
      </trkpt>
      <trkpt lat="43.78486" lon="4.94614">
        <ele>60.22</ele>
        <time>2017-10-05T13:52:57Z</time>
      </trkpt>
      <trkpt lat="43.7844" lon="4.94627">
        <ele>60.7</ele>
        <time>2017-10-05T13:53:17Z</time>
      </trkpt>
      <trkpt lat="43.78414" lon="4.94634">
        <ele>61.66</ele>
        <time>2017-10-05T13:53:30Z</time>
      </trkpt>
      <trkpt lat="43.7837" lon="4.94647">
        <ele>62.14</ele>
        <time>2017-10-05T13:53:47Z</time>
      </trkpt>
      <trkpt lat="43.78324" lon="4.94659">
        <ele>61.66</ele>
        <time>2017-10-05T13:54:04Z</time>
      </trkpt>
      <trkpt lat="43.78286" lon="4.94672">
        <ele>60.22</ele>
        <time>2017-10-05T13:54:19Z</time>
      </trkpt>
      <trkpt lat="43.78254" lon="4.94682">
        <ele>58.3</ele>
        <time>2017-10-05T13:54:33Z</time>
      </trkpt>
      <trkpt lat="43.7821" lon="4.94698">
        <ele>62.14</ele>
        <time>2017-10-05T13:54:48Z</time>
      </trkpt>
      <trkpt lat="43.78139" lon="4.94719">
        <ele>61.66</ele>
        <time>2017-10-05T13:55:14Z</time>
      </trkpt>
      <trkpt lat="43.78096" lon="4.94729">
        <ele>62.62</ele>
        <time>2017-10-05T13:55:30Z</time>
      </trkpt>
      <trkpt lat="43.78054" lon="4.94736">
        <ele>63.1</ele>
        <time>2017-10-05T13:55:46Z</time>
      </trkpt>
      <trkpt lat="43.78008" lon="4.94736">
        <ele>63.1</ele>
        <time>2017-10-05T13:56:04Z</time>
      </trkpt>
      <trkpt lat="43.77953" lon="4.94738">
        <ele>64.55</ele>
        <time>2017-10-05T13:56:25Z</time>
      </trkpt>
      <trkpt lat="43.77917" lon="4.9474">
        <ele>64.55</ele>
        <time>2017-10-05T13:56:41Z</time>
      </trkpt>
      <trkpt lat="43.77885" lon="4.94741">
        <ele>66.47</ele>
        <time>2017-10-05T13:56:54Z</time>
      </trkpt>
      <trkpt lat="43.77854" lon="4.94742">
        <ele>65.99</ele>
        <time>2017-10-05T13:57:08Z</time>
      </trkpt>
      <trkpt lat="43.77818" lon="4.9474">
        <ele>67.43</ele>
        <time>2017-10-05T13:57:24Z</time>
      </trkpt>
      <trkpt lat="43.77789" lon="4.94757">
        <ele>71.76</ele>
        <time>2017-10-05T13:57:37Z</time>
      </trkpt>
      <trkpt lat="43.7776" lon="4.9479">
        <ele>72.72</ele>
        <time>2017-10-05T13:57:53Z</time>
      </trkpt>
      <trkpt lat="43.77704" lon="4.9481">
        <ele>68.39</ele>
        <time>2017-10-05T13:58:14Z</time>
      </trkpt>
      <trkpt lat="43.77671" lon="4.94819">
        <ele>68.39</ele>
        <time>2017-10-05T13:58:29Z</time>
      </trkpt>
      <trkpt lat="43.77647" lon="4.94824">
        <ele>70.31</ele>
        <time>2017-10-05T13:58:42Z</time>
      </trkpt>
      <trkpt lat="43.77609" lon="4.94831">
        <ele>67.91</ele>
        <time>2017-10-05T13:58:57Z</time>
      </trkpt>
      <trkpt lat="43.77564" lon="4.94833">
        <ele>69.35</ele>
        <time>2017-10-05T13:59:16Z</time>
      </trkpt>
      <trkpt lat="43.77544" lon="4.94833">
        <ele>71.76</ele>
        <time>2017-10-05T13:59:27Z</time>
      </trkpt>
      <trkpt lat="43.77538" lon="4.94833">
        <ele>72.24</ele>
        <time>2017-10-05T13:59:30Z</time>
      </trkpt>
      <trkpt lat="43.77537" lon="4.94833">
        <ele>72.72</ele>
        <time>2017-10-05T13:59:31Z</time>
      </trkpt>
      <trkpt lat="43.77504" lon="4.94836">
        <ele>75.6</ele>
        <time>2017-10-05T13:59:45Z</time>
      </trkpt>
      <trkpt lat="43.77483" lon="4.94836">
        <ele>77.04</ele>
        <time>2017-10-05T13:59:56Z</time>
      </trkpt>
      <trkpt lat="43.77457" lon="4.94836">
        <ele>78</ele>
        <time>2017-10-05T14:00:09Z</time>
      </trkpt>
      <trkpt lat="43.77411" lon="4.94836">
        <ele>78</ele>
        <time>2017-10-05T14:00:25Z</time>
      </trkpt>
      <trkpt lat="43.77378" lon="4.94843">
        <ele>78.97</ele>
        <time>2017-10-05T14:00:42Z</time>
      </trkpt>
      <trkpt lat="43.77355" lon="4.94882">
        <ele>76.08</ele>
        <time>2017-10-05T14:01:07Z</time>
      </trkpt>
      <trkpt lat="43.77343" lon="4.94909">
        <ele>76.08</ele>
        <time>2017-10-05T14:01:26Z</time>
      </trkpt>
      <trkpt lat="43.77331" lon="4.94937">
        <ele>78</ele>
        <time>2017-10-05T14:01:41Z</time>
      </trkpt>
      <trkpt lat="43.77315" lon="4.94982">
        <ele>79.93</ele>
        <time>2017-10-05T14:01:56Z</time>
      </trkpt>
      <trkpt lat="43.77291" lon="4.95038">
        <ele>80.89</ele>
        <time>2017-10-05T14:02:14Z</time>
      </trkpt>
      <trkpt lat="43.77275" lon="4.95082">
        <ele>79.93</ele>
        <time>2017-10-05T14:02:28Z</time>
      </trkpt>
      <trkpt lat="43.77245" lon="4.9515">
        <ele>78.48</ele>
        <time>2017-10-05T14:02:50Z</time>
      </trkpt>
      <trkpt lat="43.77226" lon="4.95205">
        <ele>77.52</ele>
        <time>2017-10-05T14:03:09Z</time>
      </trkpt>
      <trkpt lat="43.77198" lon="4.9525">
        <ele>79.45</ele>
        <time>2017-10-05T14:03:25Z</time>
      </trkpt>
      <trkpt lat="43.77177" lon="4.95275">
        <ele>81.85</ele>
        <time>2017-10-05T14:03:39Z</time>
      </trkpt>
      <trkpt lat="43.77163" lon="4.95296">
        <ele>83.29</ele>
        <time>2017-10-05T14:03:54Z</time>
      </trkpt>
      <trkpt lat="43.77139" lon="4.95339">
        <ele>83.29</ele>
        <time>2017-10-05T14:04:22Z</time>
      </trkpt>
      <trkpt lat="43.77115" lon="4.95375">
        <ele>82.81</ele>
        <time>2017-10-05T14:04:50Z</time>
      </trkpt>
      <trkpt lat="43.77098" lon="4.95408">
        <ele>84.25</ele>
        <time>2017-10-05T14:05:05Z</time>
      </trkpt>
      <trkpt lat="43.77083" lon="4.95433">
        <ele>84.73</ele>
        <time>2017-10-05T14:05:19Z</time>
      </trkpt>
      <trkpt lat="43.77057" lon="4.95464">
        <ele>84.73</ele>
        <time>2017-10-05T14:05:31Z</time>
      </trkpt>
      <trkpt lat="43.77031" lon="4.95492">
        <ele>85.21</ele>
        <time>2017-10-05T14:05:45Z</time>
      </trkpt>
      <trkpt lat="43.76995" lon="4.95526">
        <ele>86.18</ele>
        <time>2017-10-05T14:06:02Z</time>
      </trkpt>
      <trkpt lat="43.76963" lon="4.95556">
        <ele>87.14</ele>
        <time>2017-10-05T14:06:18Z</time>
      </trkpt>
      <trkpt lat="43.76925" lon="4.95591">
        <ele>89.06</ele>
        <time>2017-10-05T14:06:35Z</time>
      </trkpt>
      <trkpt lat="43.76892" lon="4.95623">
        <ele>88.58</ele>
        <time>2017-10-05T14:06:54Z</time>
      </trkpt>
      <trkpt lat="43.76862" lon="4.95641">
        <ele>89.06</ele>
        <time>2017-10-05T14:07:07Z</time>
      </trkpt>
      <trkpt lat="43.76838" lon="4.95647">
        <ele>89.54</ele>
        <time>2017-10-05T14:07:16Z</time>
      </trkpt>
      <trkpt lat="43.76837" lon="4.95649">
        <ele>89.54</ele>
        <time>2017-10-05T14:07:17Z</time>
      </trkpt>
      <trkpt lat="43.76836" lon="4.95652">
        <ele>90.02</ele>
        <time>2017-10-05T14:07:18Z</time>
      </trkpt>
      <trkpt lat="43.76835" lon="4.95653">
        <ele>90.5</ele>
        <time>2017-10-05T14:07:19Z</time>
      </trkpt>
      <trkpt lat="43.76834" lon="4.95656">
        <ele>90.5</ele>
        <time>2017-10-05T14:07:20Z</time>
      </trkpt>
      <trkpt lat="43.76834" lon="4.95658">
        <ele>90.5</ele>
        <time>2017-10-05T14:07:21Z</time>
      </trkpt>
      <trkpt lat="43.76839" lon="4.95689">
        <ele>89.54</ele>
        <time>2017-10-05T14:07:34Z</time>
      </trkpt>
      <trkpt lat="43.76853" lon="4.95734">
        <ele>86.18</ele>
        <time>2017-10-05T14:07:52Z</time>
      </trkpt>
      <trkpt lat="43.76871" lon="4.95774">
        <ele>85.69</ele>
        <time>2017-10-05T14:08:09Z</time>
      </trkpt>
      <trkpt lat="43.76897" lon="4.95825">
        <ele>85.21</ele>
        <time>2017-10-05T14:08:28Z</time>
      </trkpt>
      <trkpt lat="43.76922" lon="4.95869">
        <ele>85.69</ele>
        <time>2017-10-05T14:08:48Z</time>
      </trkpt>
      <trkpt lat="43.76935" lon="4.95892">
        <ele>89.06</ele>
        <time>2017-10-05T14:09:00Z</time>
      </trkpt>
      <trkpt lat="43.76938" lon="4.95926">
        <ele>92.42</ele>
        <time>2017-10-05T14:09:13Z</time>
      </trkpt>
      <trkpt lat="43.76952" lon="4.95979">
        <ele>90.02</ele>
        <time>2017-10-05T14:09:27Z</time>
      </trkpt>
      <trkpt lat="43.76968" lon="4.96029">
        <ele>88.58</ele>
        <time>2017-10-05T14:09:44Z</time>
      </trkpt>
      <trkpt lat="43.76977" lon="4.96048">
        <ele>88.58</ele>
        <time>2017-10-05T14:10:01Z</time>
      </trkpt>
      <trkpt lat="43.76998" lon="4.9608">
        <ele>88.58</ele>
        <time>2017-10-05T14:10:15Z</time>
      </trkpt>
      <trkpt lat="43.77013" lon="4.96141">
        <ele>92.9</ele>
        <time>2017-10-05T14:10:30Z</time>
      </trkpt>
      <trkpt lat="43.77025" lon="4.9619">
        <ele>97.71</ele>
        <time>2017-10-05T14:10:46Z</time>
      </trkpt>
      <trkpt lat="43.77037" lon="4.96225">
        <ele>100.6</ele>
        <time>2017-10-05T14:11:12Z</time>
      </trkpt>
      <trkpt lat="43.77057" lon="4.96254">
        <ele>99.15</ele>
        <time>2017-10-05T14:11:30Z</time>
      </trkpt>
      <trkpt lat="43.77086" lon="4.96282">
        <ele>98.67</ele>
        <time>2017-10-05T14:11:47Z</time>
      </trkpt>
      <trkpt lat="43.77092" lon="4.96302">
        <ele>101.56</ele>
        <time>2017-10-05T14:11:57Z</time>
      </trkpt>
      <trkpt lat="43.7707" lon="4.96329">
        <ele>102.52</ele>
        <time>2017-10-05T14:12:20Z</time>
      </trkpt>
      <trkpt lat="43.77045" lon="4.96354">
        <ele>104.44</ele>
        <time>2017-10-05T14:12:41Z</time>
      </trkpt>
      <trkpt lat="43.77017" lon="4.96409">
        <ele>109.73</ele>
        <time>2017-10-05T14:13:14Z</time>
      </trkpt>
      <trkpt lat="43.77017" lon="4.96444">
        <ele>113.09</ele>
        <time>2017-10-05T14:13:33Z</time>
      </trkpt>
      <trkpt lat="43.77018" lon="4.96473">
        <ele>115.5</ele>
        <time>2017-10-05T14:13:52Z</time>
      </trkpt>
      <trkpt lat="43.77022" lon="4.96494">
        <ele>116.46</ele>
        <time>2017-10-05T14:14:13Z</time>
      </trkpt>
      <trkpt lat="43.77021" lon="4.96494">
        <ele>116.46</ele>
        <time>2017-10-05T14:14:53Z</time>
      </trkpt>
      <trkpt lat="43.77032" lon="4.96511">
        <ele>116.46</ele>
        <time>2017-10-05T14:15:11Z</time>
      </trkpt>
      <trkpt lat="43.77051" lon="4.96538">
        <ele>112.61</ele>
        <time>2017-10-05T14:15:33Z</time>
      </trkpt>
      <trkpt lat="43.77068" lon="4.96549">
        <ele>112.61</ele>
        <time>2017-10-05T14:15:48Z</time>
      </trkpt>
      <trkpt lat="43.77069" lon="4.96548">
        <ele>112.13</ele>
        <time>2017-10-05T14:15:52Z</time>
      </trkpt>
      <trkpt lat="43.77075" lon="4.96548">
        <ele>112.13</ele>
        <time>2017-10-05T14:15:58Z</time>
      </trkpt>
      <trkpt lat="43.77076" lon="4.96548">
        <ele>111.65</ele>
        <time>2017-10-05T14:15:59Z</time>
      </trkpt>
      <trkpt lat="43.77077" lon="4.96549">
        <ele>111.65</ele>
        <time>2017-10-05T14:16:00Z</time>
      </trkpt>
      <trkpt lat="43.77078" lon="4.96551">
        <ele>111.17</ele>
        <time>2017-10-05T14:16:01Z</time>
      </trkpt>
      <trkpt lat="43.77079" lon="4.96552">
        <ele>111.17</ele>
        <time>2017-10-05T14:16:02Z</time>
      </trkpt>
      <trkpt lat="43.7708" lon="4.96553">
        <ele>110.69</ele>
        <time>2017-10-05T14:16:03Z</time>
      </trkpt>
      <trkpt lat="43.77081" lon="4.96554">
        <ele>110.69</ele>
        <time>2017-10-05T14:16:04Z</time>
      </trkpt>
      <trkpt lat="43.77088" lon="4.96579">
        <ele>109.73</ele>
        <time>2017-10-05T14:16:18Z</time>
      </trkpt>
      <trkpt lat="43.77101" lon="4.96605">
        <ele>106.84</ele>
        <time>2017-10-05T14:16:36Z</time>
      </trkpt>
      <trkpt lat="43.77123" lon="4.96635">
        <ele>106.36</ele>
        <time>2017-10-05T14:17:01Z</time>
      </trkpt>
      <trkpt lat="43.77147" lon="4.96641">
        <ele>106.84</ele>
        <time>2017-10-05T14:17:20Z</time>
      </trkpt>
      <trkpt lat="43.7717" lon="4.9666">
        <ele>110.69</ele>
        <time>2017-10-05T14:17:43Z</time>
      </trkpt>
      <trkpt lat="43.77193" lon="4.96686">
        <ele>111.65</ele>
        <time>2017-10-05T14:18:08Z</time>
      </trkpt>
      <trkpt lat="43.77215" lon="4.9669">
        <ele>107.32</ele>
        <time>2017-10-05T14:18:26Z</time>
      </trkpt>
      <trkpt lat="43.77232" lon="4.96705">
        <ele>105.4</ele>
        <time>2017-10-05T14:18:43Z</time>
      </trkpt>
      <trkpt lat="43.77244" lon="4.96731">
        <ele>106.36</ele>
        <time>2017-10-05T14:19:00Z</time>
      </trkpt>
      <trkpt lat="43.77257" lon="4.96751">
        <ele>105.4</ele>
        <time>2017-10-05T14:19:18Z</time>
      </trkpt>
      <trkpt lat="43.7728" lon="4.96766">
        <ele>106.84</ele>
        <time>2017-10-05T14:19:36Z</time>
      </trkpt>
      <trkpt lat="43.77303" lon="4.9679">
        <ele>105.4</ele>
        <time>2017-10-05T14:19:54Z</time>
      </trkpt>
      <trkpt lat="43.77316" lon="4.96813">
        <ele>105.4</ele>
        <time>2017-10-05T14:20:09Z</time>
      </trkpt>
      <trkpt lat="43.77325" lon="4.96846">
        <ele>106.84</ele>
        <time>2017-10-05T14:20:24Z</time>
      </trkpt>
      <trkpt lat="43.77341" lon="4.9687">
        <ele>108.29</ele>
        <time>2017-10-05T14:20:40Z</time>
      </trkpt>
      <trkpt lat="43.7736" lon="4.96894">
        <ele>112.13</ele>
        <time>2017-10-05T14:20:59Z</time>
      </trkpt>
      <trkpt lat="43.77379" lon="4.96912">
        <ele>113.09</ele>
        <time>2017-10-05T14:21:15Z</time>
      </trkpt>
      <trkpt lat="43.774" lon="4.96923">
        <ele>115.98</ele>
        <time>2017-10-05T14:21:33Z</time>
      </trkpt>
      <trkpt lat="43.77426" lon="4.96933">
        <ele>115.01</ele>
        <time>2017-10-05T14:21:53Z</time>
      </trkpt>
      <trkpt lat="43.77446" lon="4.96956">
        <ele>118.38</ele>
        <time>2017-10-05T14:22:13Z</time>
      </trkpt>
      <trkpt lat="43.77463" lon="4.96983">
        <ele>121.26</ele>
        <time>2017-10-05T14:22:35Z</time>
      </trkpt>
      <trkpt lat="43.77484" lon="4.97006">
        <ele>120.3</ele>
        <time>2017-10-05T14:22:59Z</time>
      </trkpt>
      <trkpt lat="43.77506" lon="4.97016">
        <ele>117.9</ele>
        <time>2017-10-05T14:23:17Z</time>
      </trkpt>
      <trkpt lat="43.77525" lon="4.97026">
        <ele>115.98</ele>
        <time>2017-10-05T14:23:35Z</time>
      </trkpt>
      <trkpt lat="43.77542" lon="4.97049">
        <ele>113.09</ele>
        <time>2017-10-05T14:23:57Z</time>
      </trkpt>
      <trkpt lat="43.7756" lon="4.97064">
        <ele>110.21</ele>
        <time>2017-10-05T14:24:15Z</time>
      </trkpt>
      <trkpt lat="43.77575" lon="4.9707">
        <ele>108.29</ele>
        <time>2017-10-05T14:24:33Z</time>
      </trkpt>
      <trkpt lat="43.77584" lon="4.97067">
        <ele>106.36</ele>
        <time>2017-10-05T14:24:55Z</time>
      </trkpt>
      <trkpt lat="43.77606" lon="4.97065">
        <ele>104.92</ele>
        <time>2017-10-05T14:25:13Z</time>
      </trkpt>
      <trkpt lat="43.77627" lon="4.97057">
        <ele>104.44</ele>
        <time>2017-10-05T14:25:32Z</time>
      </trkpt>
      <trkpt lat="43.7765" lon="4.97046">
        <ele>103</ele>
        <time>2017-10-05T14:25:53Z</time>
      </trkpt>
      <trkpt lat="43.77672" lon="4.97035">
        <ele>101.08</ele>
        <time>2017-10-05T14:26:12Z</time>
      </trkpt>
      <trkpt lat="43.77692" lon="4.9702">
        <ele>100.6</ele>
        <time>2017-10-05T14:26:31Z</time>
      </trkpt>
      <trkpt lat="43.77713" lon="4.97004">
        <ele>99.15</ele>
        <time>2017-10-05T14:26:52Z</time>
      </trkpt>
      <trkpt lat="43.77744" lon="4.96982">
        <ele>96.75</ele>
        <time>2017-10-05T14:27:21Z</time>
      </trkpt>
      <trkpt lat="43.77765" lon="4.96959">
        <ele>95.79</ele>
        <time>2017-10-05T14:27:44Z</time>
      </trkpt>
      <trkpt lat="43.77791" lon="4.96935">
        <ele>94.35</ele>
        <time>2017-10-05T14:28:09Z</time>
      </trkpt>
      <trkpt lat="43.77812" lon="4.96918">
        <ele>92.42</ele>
        <time>2017-10-05T14:28:27Z</time>
      </trkpt>
      <trkpt lat="43.77833" lon="4.96899">
        <ele>90.5</ele>
        <time>2017-10-05T14:28:44Z</time>
      </trkpt>
      <trkpt lat="43.7786" lon="4.96878">
        <ele>89.06</ele>
        <time>2017-10-05T14:29:05Z</time>
      </trkpt>
      <trkpt lat="43.77884" lon="4.96859">
        <ele>87.14</ele>
        <time>2017-10-05T14:29:26Z</time>
      </trkpt>
      <trkpt lat="43.77915" lon="4.96841">
        <ele>86.18</ele>
        <time>2017-10-05T14:29:48Z</time>
      </trkpt>
      <trkpt lat="43.77941" lon="4.96822">
        <ele>86.18</ele>
        <time>2017-10-05T14:30:05Z</time>
      </trkpt>
      <trkpt lat="43.77972" lon="4.96805">
        <ele>84.73</ele>
        <time>2017-10-05T14:30:19Z</time>
      </trkpt>
      <trkpt lat="43.7802" lon="4.96789">
        <ele>83.77</ele>
        <time>2017-10-05T14:30:38Z</time>
      </trkpt>
      <trkpt lat="43.78073" lon="4.96772">
        <ele>82.81</ele>
        <time>2017-10-05T14:31:00Z</time>
      </trkpt>
      <trkpt lat="43.78108" lon="4.96758">
        <ele>81.37</ele>
        <time>2017-10-05T14:31:15Z</time>
      </trkpt>
      <trkpt lat="43.7814" lon="4.96749">
        <ele>80.41</ele>
        <time>2017-10-05T14:31:31Z</time>
      </trkpt>
      <trkpt lat="43.78191" lon="4.9672">
        <ele>77.04</ele>
        <time>2017-10-05T14:31:52Z</time>
      </trkpt>
      <trkpt lat="43.78211" lon="4.9671">
        <ele>77.04</ele>
        <time>2017-10-05T14:32:04Z</time>
      </trkpt>
      <trkpt lat="43.78251" lon="4.96678">
        <ele>74.64</ele>
        <time>2017-10-05T14:32:22Z</time>
      </trkpt>
      <trkpt lat="43.78287" lon="4.96644">
        <ele>74.16</ele>
        <time>2017-10-05T14:32:41Z</time>
      </trkpt>
      <trkpt lat="43.78333" lon="4.96607">
        <ele>73.2</ele>
        <time>2017-10-05T14:33:02Z</time>
      </trkpt>
      <trkpt lat="43.78396" lon="4.96576">
        <ele>69.83</ele>
        <time>2017-10-05T14:33:25Z</time>
      </trkpt>
      <trkpt lat="43.78441" lon="4.9655">
        <ele>71.27</ele>
        <time>2017-10-05T14:33:44Z</time>
      </trkpt>
      <trkpt lat="43.78479" lon="4.9653">
        <ele>70.79</ele>
        <time>2017-10-05T14:33:59Z</time>
      </trkpt>
      <trkpt lat="43.78514" lon="4.96509">
        <ele>81.37</ele>
        <time>2017-10-05T14:34:14Z</time>
      </trkpt>
      <trkpt lat="43.78565" lon="4.96468">
        <ele>80.89</ele>
        <time>2017-10-05T14:34:34Z</time>
      </trkpt>
      <trkpt lat="43.7862" lon="4.96432">
        <ele>74.16</ele>
        <time>2017-10-05T14:34:55Z</time>
      </trkpt>
      <trkpt lat="43.78678" lon="4.96401">
        <ele>69.35</ele>
        <time>2017-10-05T14:35:16Z</time>
      </trkpt>
      <trkpt lat="43.78729" lon="4.96379">
        <ele>65.99</ele>
        <time>2017-10-05T14:35:34Z</time>
      </trkpt>
      <trkpt lat="43.78775" lon="4.96362">
        <ele>66.47</ele>
        <time>2017-10-05T14:35:50Z</time>
      </trkpt>
      <trkpt lat="43.78805" lon="4.96353">
        <ele>65.51</ele>
        <time>2017-10-05T14:36:02Z</time>
      </trkpt>
      <trkpt lat="43.78856" lon="4.96337">
        <ele>65.99</ele>
        <time>2017-10-05T14:36:18Z</time>
      </trkpt>
      <trkpt lat="43.78909" lon="4.96322">
        <ele>64.55</ele>
        <time>2017-10-05T14:36:38Z</time>
      </trkpt>
      <trkpt lat="43.78945" lon="4.96313">
        <ele>63.1</ele>
        <time>2017-10-05T14:36:56Z</time>
      </trkpt>
      <trkpt lat="43.7897" lon="4.96303">
        <ele>63.1</ele>
        <time>2017-10-05T14:37:11Z</time>
      </trkpt>
      <trkpt lat="43.78981" lon="4.96308">
        <ele>62.62</ele>
        <time>2017-10-05T14:37:23Z</time>
      </trkpt>
      <trkpt lat="43.79013" lon="4.96314">
        <ele>60.22</ele>
        <time>2017-10-05T14:37:36Z</time>
      </trkpt>
      <trkpt lat="43.79038" lon="4.96281">
        <ele>58.3</ele>
        <time>2017-10-05T14:37:50Z</time>
      </trkpt>
      <trkpt lat="43.79085" lon="4.96258">
        <ele>57.82</ele>
        <time>2017-10-05T14:38:07Z</time>
      </trkpt>
      <trkpt lat="43.79129" lon="4.96243">
        <ele>59.26</ele>
        <time>2017-10-05T14:38:26Z</time>
      </trkpt>
      <trkpt lat="43.79143" lon="4.9624">
        <ele>59.26</ele>
        <time>2017-10-05T14:38:39Z</time>
      </trkpt>
      <trkpt lat="43.79212" lon="4.96222">
        <ele>58.3</ele>
        <time>2017-10-05T14:39:03Z</time>
      </trkpt>
      <trkpt lat="43.79277" lon="4.96203">
        <ele>57.82</ele>
        <time>2017-10-05T14:39:25Z</time>
      </trkpt>
      <trkpt lat="43.79332" lon="4.96191">
        <ele>55.89</ele>
        <time>2017-10-05T14:39:46Z</time>
      </trkpt>
      <trkpt lat="43.79381" lon="4.96178">
        <ele>56.37</ele>
        <time>2017-10-05T14:40:05Z</time>
      </trkpt>
      <trkpt lat="43.79438" lon="4.96131">
        <ele>58.78</ele>
        <time>2017-10-05T14:40:27Z</time>
      </trkpt>
      <trkpt lat="43.7948" lon="4.96098">
        <ele>59.26</ele>
        <time>2017-10-05T14:40:44Z</time>
      </trkpt>
      <trkpt lat="43.79528" lon="4.96063">
        <ele>58.78</ele>
        <time>2017-10-05T14:41:04Z</time>
      </trkpt>
      <trkpt lat="43.79577" lon="4.96023">
        <ele>56.86</ele>
        <time>2017-10-05T14:41:25Z</time>
      </trkpt>
      <trkpt lat="43.79633" lon="4.95974">
        <ele>56.86</ele>
        <time>2017-10-05T14:41:47Z</time>
      </trkpt>
      <trkpt lat="43.79667" lon="4.95939">
        <ele>57.34</ele>
        <time>2017-10-05T14:42:02Z</time>
      </trkpt>
      <trkpt lat="43.79707" lon="4.95892">
        <ele>57.34</ele>
        <time>2017-10-05T14:42:22Z</time>
      </trkpt>
      <trkpt lat="43.79747" lon="4.95837">
        <ele>58.3</ele>
        <time>2017-10-05T14:42:44Z</time>
      </trkpt>
      <trkpt lat="43.79778" lon="4.95779">
        <ele>58.78</ele>
        <time>2017-10-05T14:43:03Z</time>
      </trkpt>
      <trkpt lat="43.79795" lon="4.95747">
        <ele>60.22</ele>
        <time>2017-10-05T14:43:18Z</time>
      </trkpt>
      <trkpt lat="43.79796" lon="4.95745">
        <ele>60.7</ele>
        <time>2017-10-05T14:43:28Z</time>
      </trkpt>
      <trkpt lat="43.79793" lon="4.95746">
        <ele>60.22</ele>
        <time>2017-10-05T14:43:32Z</time>
      </trkpt>
      <trkpt lat="43.79793" lon="4.95746">
        <ele>60.22</ele>
        <time>2017-10-05T14:43:33Z</time>
      </trkpt>
      <trkpt lat="43.79793" lon="4.95748">
        <ele>60.22</ele>
        <time>2017-10-05T14:43:34Z</time>
      </trkpt>
      <trkpt lat="43.79794" lon="4.95749">
        <ele>59.74</ele>
        <time>2017-10-05T14:43:35Z</time>
      </trkpt>
      <trkpt lat="43.79795" lon="4.95751">
        <ele>59.74</ele>
        <time>2017-10-05T14:43:36Z</time>
      </trkpt>
      <trkpt lat="43.79798" lon="4.95753">
        <ele>59.74</ele>
        <time>2017-10-05T14:43:37Z</time>
      </trkpt>
      <trkpt lat="43.798" lon="4.95756">
        <ele>59.26</ele>
        <time>2017-10-05T14:43:38Z</time>
      </trkpt>
      <trkpt lat="43.79828" lon="4.9579">
        <ele>57.82</ele>
        <time>2017-10-05T14:43:53Z</time>
      </trkpt>
      <trkpt lat="43.79853" lon="4.95819">
        <ele>55.41</ele>
        <time>2017-10-05T14:44:12Z</time>
      </trkpt>
      <trkpt lat="43.7987" lon="4.9584">
        <ele>56.37</ele>
        <time>2017-10-05T14:44:28Z</time>
      </trkpt>
      <trkpt lat="43.79893" lon="4.95866">
        <ele>58.78</ele>
        <time>2017-10-05T14:44:47Z</time>
      </trkpt>
      <trkpt lat="43.79925" lon="4.95893">
        <ele>56.37</ele>
        <time>2017-10-05T14:45:12Z</time>
      </trkpt>
      <trkpt lat="43.79954" lon="4.95911">
        <ele>56.86</ele>
        <time>2017-10-05T14:45:34Z</time>
      </trkpt>
      <trkpt lat="43.7999" lon="4.95931">
        <ele>57.34</ele>
        <time>2017-10-05T14:46:01Z</time>
      </trkpt>
      <trkpt lat="43.80013" lon="4.95945">
        <ele>57.82</ele>
        <time>2017-10-05T14:46:18Z</time>
      </trkpt>
      <trkpt lat="43.80021" lon="4.95946">
        <ele>56.86</ele>
        <time>2017-10-05T14:46:29Z</time>
      </trkpt>
      <trkpt lat="43.80026" lon="4.95948">
        <ele>56.86</ele>
        <time>2017-10-05T14:46:33Z</time>
      </trkpt>
      <trkpt lat="43.80065" lon="4.95956">
        <ele>56.37</ele>
        <time>2017-10-05T14:46:50Z</time>
      </trkpt>
      <trkpt lat="43.80113" lon="4.95971">
        <ele>55.89</ele>
        <time>2017-10-05T14:47:08Z</time>
      </trkpt>
      <trkpt lat="43.80157" lon="4.95987">
        <ele>54.93</ele>
        <time>2017-10-05T14:47:25Z</time>
      </trkpt>
      <trkpt lat="43.80194" lon="4.95999">
        <ele>53.49</ele>
        <time>2017-10-05T14:47:40Z</time>
      </trkpt>
      <trkpt lat="43.80236" lon="4.96013">
        <ele>53.97</ele>
        <time>2017-10-05T14:47:56Z</time>
      </trkpt>
      <trkpt lat="43.80295" lon="4.96031">
        <ele>56.37</ele>
        <time>2017-10-05T14:48:18Z</time>
      </trkpt>
      <trkpt lat="43.80333" lon="4.96044">
        <ele>56.37</ele>
        <time>2017-10-05T14:48:39Z</time>
      </trkpt>
      <trkpt lat="43.80363" lon="4.96053">
        <ele>56.86</ele>
        <time>2017-10-05T14:49:00Z</time>
      </trkpt>
      <trkpt lat="43.80399" lon="4.96065">
        <ele>55.41</ele>
        <time>2017-10-05T14:49:27Z</time>
      </trkpt>
      <trkpt lat="43.80445" lon="4.96077">
        <ele>56.37</ele>
        <time>2017-10-05T14:49:50Z</time>
      </trkpt>
      <trkpt lat="43.80487" lon="4.96089">
        <ele>54.93</ele>
        <time>2017-10-05T14:50:07Z</time>
      </trkpt>
      <trkpt lat="43.80522" lon="4.961">
        <ele>55.41</ele>
        <time>2017-10-05T14:50:21Z</time>
      </trkpt>
      <trkpt lat="43.80585" lon="4.9612">
        <ele>55.89</ele>
        <time>2017-10-05T14:50:43Z</time>
      </trkpt>
      <trkpt lat="43.80615" lon="4.96129">
        <ele>55.89</ele>
        <time>2017-10-05T14:51:03Z</time>
      </trkpt>
      <trkpt lat="43.8063" lon="4.96131">
        <ele>56.86</ele>
        <time>2017-10-05T14:51:13Z</time>
      </trkpt>
      <trkpt lat="43.80679" lon="4.96143">
        <ele>57.82</ele>
        <time>2017-10-05T14:51:32Z</time>
      </trkpt>
      <trkpt lat="43.80737" lon="4.96161">
        <ele>55.89</ele>
        <time>2017-10-05T14:51:55Z</time>
      </trkpt>
      <trkpt lat="43.80772" lon="4.9617">
        <ele>55.89</ele>
        <time>2017-10-05T14:52:15Z</time>
      </trkpt>
      <trkpt lat="43.80816" lon="4.96186">
        <ele>56.86</ele>
        <time>2017-10-05T14:52:31Z</time>
      </trkpt>
      <trkpt lat="43.8086" lon="4.96179">
        <ele>55.89</ele>
        <time>2017-10-05T14:52:49Z</time>
      </trkpt>
      <trkpt lat="43.80904" lon="4.96169">
        <ele>57.82</ele>
        <time>2017-10-05T14:53:07Z</time>
      </trkpt>
      <trkpt lat="43.80929" lon="4.9616">
        <ele>60.22</ele>
        <time>2017-10-05T14:53:24Z</time>
      </trkpt>
      <trkpt lat="43.8097" lon="4.96144">
        <ele>59.74</ele>
        <time>2017-10-05T14:53:41Z</time>
      </trkpt>
      <trkpt lat="43.81024" lon="4.96128">
        <ele>59.74</ele>
        <time>2017-10-05T14:54:01Z</time>
      </trkpt>
      <trkpt lat="43.81074" lon="4.96113">
        <ele>59.26</ele>
        <time>2017-10-05T14:54:23Z</time>
      </trkpt>
      <trkpt lat="43.81112" lon="4.96095">
        <ele>60.7</ele>
        <time>2017-10-05T14:54:47Z</time>
      </trkpt>
      <trkpt lat="43.81148" lon="4.96087">
        <ele>59.26</ele>
        <time>2017-10-05T14:55:12Z</time>
      </trkpt>
      <trkpt lat="43.8118" lon="4.96087">
        <ele>58.3</ele>
        <time>2017-10-05T14:55:34Z</time>
      </trkpt>
      <trkpt lat="43.81218" lon="4.96089">
        <ele>57.82</ele>
        <time>2017-10-05T14:55:59Z</time>
      </trkpt>
      <trkpt lat="43.81254" lon="4.96093">
        <ele>56.86</ele>
        <time>2017-10-05T14:56:24Z</time>
      </trkpt>
      <trkpt lat="43.81282" lon="4.96093">
        <ele>55.89</ele>
        <time>2017-10-05T14:56:45Z</time>
      </trkpt>
      <trkpt lat="43.8131" lon="4.9609">
        <ele>56.37</ele>
        <time>2017-10-05T14:57:05Z</time>
      </trkpt>
      <trkpt lat="43.81332" lon="4.96083">
        <ele>59.26</ele>
        <time>2017-10-05T14:57:20Z</time>
      </trkpt>
      <trkpt lat="43.81361" lon="4.9608">
        <ele>60.22</ele>
        <time>2017-10-05T14:57:39Z</time>
      </trkpt>
      <trkpt lat="43.8138" lon="4.96105">
        <ele>58.78</ele>
        <time>2017-10-05T14:57:54Z</time>
      </trkpt>
      <trkpt lat="43.81392" lon="4.96181">
        <ele>59.74</ele>
        <time>2017-10-05T14:58:14Z</time>
      </trkpt>
      <trkpt lat="43.81403" lon="4.96243">
        <ele>61.18</ele>
        <time>2017-10-05T14:58:30Z</time>
      </trkpt>
      <trkpt lat="43.81413" lon="4.96298">
        <ele>66.47</ele>
        <time>2017-10-05T14:58:46Z</time>
      </trkpt>
      <trkpt lat="43.81418" lon="4.9633">
        <ele>74.64</ele>
        <time>2017-10-05T14:59:01Z</time>
      </trkpt>
      <trkpt lat="43.81425" lon="4.96356">
        <ele>80.89</ele>
        <time>2017-10-05T14:59:16Z</time>
      </trkpt>
      <trkpt lat="43.81426" lon="4.96358">
        <ele>81.37</ele>
        <time>2017-10-05T14:59:17Z</time>
      </trkpt>
      <trkpt lat="43.81427" lon="4.9636">
        <ele>81.37</ele>
        <time>2017-10-05T14:59:18Z</time>
      </trkpt>
      <trkpt lat="43.81428" lon="4.96361">
        <ele>81.85</ele>
        <time>2017-10-05T14:59:19Z</time>
      </trkpt>
      <trkpt lat="43.81429" lon="4.96364">
        <ele>81.37</ele>
        <time>2017-10-05T14:59:20Z</time>
      </trkpt>
      <trkpt lat="43.81453" lon="4.96372">
        <ele>72.24</ele>
        <time>2017-10-05T14:59:38Z</time>
      </trkpt>
      <trkpt lat="43.81489" lon="4.96365">
        <ele>66.47</ele>
        <time>2017-10-05T15:00:04Z</time>
      </trkpt>
      <trkpt lat="43.81508" lon="4.96362">
        <ele>65.03</ele>
        <time>2017-10-05T15:00:19Z</time>
      </trkpt>
      <trkpt lat="43.81534" lon="4.96356">
        <ele>63.58</ele>
        <time>2017-10-05T15:00:36Z</time>
      </trkpt>
      <trkpt lat="43.81559" lon="4.96351">
        <ele>63.1</ele>
        <time>2017-10-05T15:00:54Z</time>
      </trkpt>
      <trkpt lat="43.81587" lon="4.96345">
        <ele>63.1</ele>
        <time>2017-10-05T15:01:11Z</time>
      </trkpt>
      <trkpt lat="43.81594" lon="4.96343">
        <ele>62.14</ele>
        <time>2017-10-05T15:01:26Z</time>
      </trkpt>
      <trkpt lat="43.81626" lon="4.96343">
        <ele>62.14</ele>
        <time>2017-10-05T15:01:37Z</time>
      </trkpt>
      <trkpt lat="43.81678" lon="4.96344">
        <ele>62.62</ele>
        <time>2017-10-05T15:01:56Z</time>
      </trkpt>
      <trkpt lat="43.81719" lon="4.9635">
        <ele>63.58</ele>
        <time>2017-10-05T15:02:11Z</time>
      </trkpt>
      <trkpt lat="43.81761" lon="4.96351">
        <ele>63.1</ele>
        <time>2017-10-05T15:02:38Z</time>
      </trkpt>
      <trkpt lat="43.81797" lon="4.96356">
        <ele>63.1</ele>
        <time>2017-10-05T15:03:04Z</time>
      </trkpt>
      <trkpt lat="43.81833" lon="4.96358">
        <ele>63.1</ele>
        <time>2017-10-05T15:03:29Z</time>
      </trkpt>
      <trkpt lat="43.81851" lon="4.96359">
        <ele>65.99</ele>
        <time>2017-10-05T15:03:50Z</time>
      </trkpt>
      <trkpt lat="43.81868" lon="4.96355">
        <ele>66.47</ele>
        <time>2017-10-05T15:04:08Z</time>
      </trkpt>
      <trkpt lat="43.81922" lon="4.9635">
        <ele>65.99</ele>
        <time>2017-10-05T15:04:25Z</time>
      </trkpt>
      <trkpt lat="43.81951" lon="4.96347">
        <ele>64.55</ele>
        <time>2017-10-05T15:04:38Z</time>
      </trkpt>
      <trkpt lat="43.81962" lon="4.96322">
        <ele>64.55</ele>
        <time>2017-10-05T15:04:50Z</time>
      </trkpt>
      <trkpt lat="43.81961" lon="4.96249">
        <ele>62.14</ele>
        <time>2017-10-05T15:05:07Z</time>
      </trkpt>
      <trkpt lat="43.81958" lon="4.96188">
        <ele>61.66</ele>
        <time>2017-10-05T15:05:23Z</time>
      </trkpt>
      <trkpt lat="43.81957" lon="4.96147">
        <ele>62.62</ele>
        <time>2017-10-05T15:05:41Z</time>
      </trkpt>
      <trkpt lat="43.81955" lon="4.96088">
        <ele>62.62</ele>
        <time>2017-10-05T15:05:55Z</time>
      </trkpt>
      <trkpt lat="43.81952" lon="4.96031">
        <ele>62.62</ele>
        <time>2017-10-05T15:06:09Z</time>
      </trkpt>
      <trkpt lat="43.81949" lon="4.95986">
        <ele>62.14</ele>
        <time>2017-10-05T15:06:25Z</time>
      </trkpt>
      <trkpt lat="43.81944" lon="4.95926">
        <ele>61.66</ele>
        <time>2017-10-05T15:06:43Z</time>
      </trkpt>
      <trkpt lat="43.81939" lon="4.95861">
        <ele>61.18</ele>
        <time>2017-10-05T15:06:57Z</time>
      </trkpt>
      <trkpt lat="43.81933" lon="4.95774">
        <ele>59.74</ele>
        <time>2017-10-05T15:07:15Z</time>
      </trkpt>
      <trkpt lat="43.8193" lon="4.95702">
        <ele>61.18</ele>
        <time>2017-10-05T15:07:32Z</time>
      </trkpt>
      <trkpt lat="43.8193" lon="4.9564">
        <ele>59.74</ele>
        <time>2017-10-05T15:07:49Z</time>
      </trkpt>
      <trkpt lat="43.81933" lon="4.95638">
        <ele>60.22</ele>
        <time>2017-10-05T15:07:50Z</time>
      </trkpt>
      <trkpt lat="43.81936" lon="4.95636">
        <ele>60.22</ele>
        <time>2017-10-05T15:07:51Z</time>
      </trkpt>
      <trkpt lat="43.81987" lon="4.95619">
        <ele>61.18</ele>
        <time>2017-10-05T15:08:09Z</time>
      </trkpt>
      <trkpt lat="43.82032" lon="4.95605">
        <ele>61.18</ele>
        <time>2017-10-05T15:08:30Z</time>
      </trkpt>
      <trkpt lat="43.82073" lon="4.95591">
        <ele>60.7</ele>
        <time>2017-10-05T15:08:58Z</time>
      </trkpt>
      <trkpt lat="43.8212" lon="4.95576">
        <ele>60.22</ele>
        <time>2017-10-05T15:09:31Z</time>
      </trkpt>
      <trkpt lat="43.82164" lon="4.95563">
        <ele>60.22</ele>
        <time>2017-10-05T15:10:02Z</time>
      </trkpt>
      <trkpt lat="43.82201" lon="4.9555">
        <ele>62.14</ele>
        <time>2017-10-05T15:10:25Z</time>
      </trkpt>
      <trkpt lat="43.82267" lon="4.95529">
        <ele>61.66</ele>
        <time>2017-10-05T15:10:47Z</time>
      </trkpt>
      <trkpt lat="43.82322" lon="4.95512">
        <ele>62.62</ele>
        <time>2017-10-05T15:11:07Z</time>
      </trkpt>
      <trkpt lat="43.82336" lon="4.95507">
        <ele>61.18</ele>
        <time>2017-10-05T15:11:23Z</time>
      </trkpt>
      <trkpt lat="43.82385" lon="4.95493">
        <ele>64.07</ele>
        <time>2017-10-05T15:11:41Z</time>
      </trkpt>
      <trkpt lat="43.82424" lon="4.95481">
        <ele>64.07</ele>
        <time>2017-10-05T15:12:08Z</time>
      </trkpt>
      <trkpt lat="43.82463" lon="4.95469">
        <ele>65.03</ele>
        <time>2017-10-05T15:12:35Z</time>
      </trkpt>
      <trkpt lat="43.82502" lon="4.95456">
        <ele>65.99</ele>
        <time>2017-10-05T15:12:50Z</time>
      </trkpt>
      <trkpt lat="43.82533" lon="4.95447">
        <ele>64.55</ele>
        <time>2017-10-05T15:13:03Z</time>
      </trkpt>
      <trkpt lat="43.82587" lon="4.9543">
        <ele>65.03</ele>
        <time>2017-10-05T15:13:26Z</time>
      </trkpt>
      <trkpt lat="43.82621" lon="4.95421">
        <ele>65.03</ele>
        <time>2017-10-05T15:13:46Z</time>
      </trkpt>
      <trkpt lat="43.82648" lon="4.95401">
        <ele>63.1</ele>
        <time>2017-10-05T15:14:04Z</time>
      </trkpt>
      <trkpt lat="43.8265" lon="4.95333">
        <ele>58.78</ele>
        <time>2017-10-05T15:14:23Z</time>
      </trkpt>
      <trkpt lat="43.82651" lon="4.95271">
        <ele>57.34</ele>
        <time>2017-10-05T15:14:42Z</time>
      </trkpt>
      <trkpt lat="43.8265" lon="4.95227">
        <ele>57.34</ele>
        <time>2017-10-05T15:14:56Z</time>
      </trkpt>
      <trkpt lat="43.82649" lon="4.95162">
        <ele>56.86</ele>
        <time>2017-10-05T15:15:17Z</time>
      </trkpt>
      <trkpt lat="43.82647" lon="4.9512">
        <ele>56.37</ele>
        <time>2017-10-05T15:15:37Z</time>
      </trkpt>
      <trkpt lat="43.82646" lon="4.95056">
        <ele>56.37</ele>
        <time>2017-10-05T15:16:04Z</time>
      </trkpt>
      <trkpt lat="43.82644" lon="4.9495">
        <ele>55.41</ele>
        <time>2017-10-05T15:16:26Z</time>
      </trkpt>
      <trkpt lat="43.82643" lon="4.94884">
        <ele>53.97</ele>
        <time>2017-10-05T15:16:45Z</time>
      </trkpt>
      <trkpt lat="43.82655" lon="4.94862">
        <ele>55.41</ele>
        <time>2017-10-05T15:16:56Z</time>
      </trkpt>
      <trkpt lat="43.82699" lon="4.94851">
        <ele>56.86</ele>
        <time>2017-10-05T15:17:14Z</time>
      </trkpt>
      <trkpt lat="43.82743" lon="4.94842">
        <ele>56.37</ele>
        <time>2017-10-05T15:17:31Z</time>
      </trkpt>
      <trkpt lat="43.8278" lon="4.94834">
        <ele>55.41</ele>
        <time>2017-10-05T15:17:47Z</time>
      </trkpt>
      <trkpt lat="43.82819" lon="4.94828">
        <ele>57.82</ele>
        <time>2017-10-05T15:18:02Z</time>
      </trkpt>
      <trkpt lat="43.8285" lon="4.94822">
        <ele>54.93</ele>
        <time>2017-10-05T15:18:13Z</time>
      </trkpt>
      <trkpt lat="43.8288" lon="4.94816">
        <ele>51.57</ele>
        <time>2017-10-05T15:18:24Z</time>
      </trkpt>
      <trkpt lat="43.82917" lon="4.9481">
        <ele>51.57</ele>
        <time>2017-10-05T15:18:38Z</time>
      </trkpt>
      <trkpt lat="43.82947" lon="4.94809">
        <ele>53.01</ele>
        <time>2017-10-05T15:18:54Z</time>
      </trkpt>
      <trkpt lat="43.82972" lon="4.94811">
        <ele>53.49</ele>
        <time>2017-10-05T15:19:10Z</time>
      </trkpt>
      <trkpt lat="43.82992" lon="4.94816">
        <ele>53.97</ele>
        <time>2017-10-05T15:19:25Z</time>
      </trkpt>
      <trkpt lat="43.83029" lon="4.94822">
        <ele>55.41</ele>
        <time>2017-10-05T15:19:50Z</time>
      </trkpt>
      <trkpt lat="43.83056" lon="4.94825">
        <ele>56.86</ele>
        <time>2017-10-05T15:20:08Z</time>
      </trkpt>
      <trkpt lat="43.83099" lon="4.94832">
        <ele>56.86</ele>
        <time>2017-10-05T15:20:39Z</time>
      </trkpt>
      <trkpt lat="43.83125" lon="4.94831">
        <ele>54.45</ele>
        <time>2017-10-05T15:20:58Z</time>
      </trkpt>
      <trkpt lat="43.83139" lon="4.94818">
        <ele>56.37</ele>
        <time>2017-10-05T15:21:11Z</time>
      </trkpt>
      <trkpt lat="43.83139" lon="4.94767">
        <ele>56.37</ele>
        <time>2017-10-05T15:21:26Z</time>
      </trkpt>
      <trkpt lat="43.8313" lon="4.94687">
        <ele>56.86</ele>
        <time>2017-10-05T15:21:46Z</time>
      </trkpt>
      <trkpt lat="43.83129" lon="4.94613">
        <ele>56.37</ele>
        <time>2017-10-05T15:22:06Z</time>
      </trkpt>
      <trkpt lat="43.83148" lon="4.9458">
        <ele>56.86</ele>
        <time>2017-10-05T15:22:17Z</time>
      </trkpt>
      <trkpt lat="43.83165" lon="4.94486">
        <ele>56.37</ele>
        <time>2017-10-05T15:22:42Z</time>
      </trkpt>
      <trkpt lat="43.83172" lon="4.94444">
        <ele>57.34</ele>
        <time>2017-10-05T15:23:02Z</time>
      </trkpt>
      <trkpt lat="43.83176" lon="4.94403">
        <ele>56.37</ele>
        <time>2017-10-05T15:23:25Z</time>
      </trkpt>
      <trkpt lat="43.83177" lon="4.94402">
        <ele>55.89</ele>
        <time>2017-10-05T15:23:39Z</time>
      </trkpt>
      <trkpt lat="43.83176" lon="4.944">
        <ele>55.89</ele>
        <time>2017-10-05T15:23:40Z</time>
      </trkpt>
      <trkpt lat="43.83162" lon="4.94346">
        <ele>55.41</ele>
        <time>2017-10-05T15:23:55Z</time>
      </trkpt>
      <trkpt lat="43.83154" lon="4.94277">
        <ele>55.41</ele>
        <time>2017-10-05T15:24:13Z</time>
      </trkpt>
      <trkpt lat="43.83154" lon="4.94238">
        <ele>56.37</ele>
        <time>2017-10-05T15:24:30Z</time>
      </trkpt>
      <trkpt lat="43.83177" lon="4.94218">
        <ele>55.41</ele>
        <time>2017-10-05T15:24:48Z</time>
      </trkpt>
      <trkpt lat="43.83207" lon="4.94215">
        <ele>53.49</ele>
        <time>2017-10-05T15:25:08Z</time>
      </trkpt>
      <trkpt lat="43.83243" lon="4.94219">
        <ele>55.41</ele>
        <time>2017-10-05T15:25:34Z</time>
      </trkpt>
      <trkpt lat="43.83274" lon="4.94208">
        <ele>53.49</ele>
        <time>2017-10-05T15:25:55Z</time>
      </trkpt>
      <trkpt lat="43.83299" lon="4.942">
        <ele>53.97</ele>
        <time>2017-10-05T15:26:12Z</time>
      </trkpt>
      <trkpt lat="43.83331" lon="4.94188">
        <ele>55.41</ele>
        <time>2017-10-05T15:26:35Z</time>
      </trkpt>
      <trkpt lat="43.83354" lon="4.94178">
        <ele>54.93</ele>
        <time>2017-10-05T15:26:55Z</time>
      </trkpt>
      <trkpt lat="43.83349" lon="4.94131">
        <ele>55.41</ele>
        <time>2017-10-05T15:27:09Z</time>
      </trkpt>
      <trkpt lat="43.83329" lon="4.9405">
        <ele>54.93</ele>
        <time>2017-10-05T15:27:30Z</time>
      </trkpt>
      <trkpt lat="43.83306" lon="4.93964">
        <ele>56.37</ele>
        <time>2017-10-05T15:27:51Z</time>
      </trkpt>
      <trkpt lat="43.83284" lon="4.93909">
        <ele>55.89</ele>
        <time>2017-10-05T15:28:07Z</time>
      </trkpt>
      <trkpt lat="43.83248" lon="4.93835">
        <ele>55.41</ele>
        <time>2017-10-05T15:28:27Z</time>
      </trkpt>
      <trkpt lat="43.83213" lon="4.93759">
        <ele>56.37</ele>
        <time>2017-10-05T15:28:48Z</time>
      </trkpt>
      <trkpt lat="43.83178" lon="4.93686">
        <ele>55.41</ele>
        <time>2017-10-05T15:29:08Z</time>
      </trkpt>
      <trkpt lat="43.83143" lon="4.93611">
        <ele>54.45</ele>
        <time>2017-10-05T15:29:30Z</time>
      </trkpt>
      <trkpt lat="43.8311" lon="4.93542">
        <ele>54.93</ele>
        <time>2017-10-05T15:29:50Z</time>
      </trkpt>
      <trkpt lat="43.83104" lon="4.93522">
        <ele>54.45</ele>
        <time>2017-10-05T15:29:56Z</time>
      </trkpt>
      <trkpt lat="43.83105" lon="4.93518">
        <ele>53.97</ele>
        <time>2017-10-05T15:29:57Z</time>
      </trkpt>
      <trkpt lat="43.83107" lon="4.93515">
        <ele>53.97</ele>
        <time>2017-10-05T15:29:58Z</time>
      </trkpt>
      <trkpt lat="43.83109" lon="4.93512">
        <ele>53.97</ele>
        <time>2017-10-05T15:29:59Z</time>
      </trkpt>
      <trkpt lat="43.83111" lon="4.9351">
        <ele>53.97</ele>
        <time>2017-10-05T15:30:00Z</time>
      </trkpt>
      <trkpt lat="43.83114" lon="4.93509">
        <ele>53.49</ele>
        <time>2017-10-05T15:30:01Z</time>
      </trkpt>
      <trkpt lat="43.83156" lon="4.93487">
        <ele>52.05</ele>
        <time>2017-10-05T15:30:18Z</time>
      </trkpt>
      <trkpt lat="43.83207" lon="4.93461">
        <ele>53.01</ele>
        <time>2017-10-05T15:30:38Z</time>
      </trkpt>
      <trkpt lat="43.83226" lon="4.93445">
        <ele>53.01</ele>
        <time>2017-10-05T15:30:54Z</time>
      </trkpt>
      <trkpt lat="43.83229" lon="4.93429">
        <ele>55.41</ele>
        <time>2017-10-05T15:31:03Z</time>
      </trkpt>
      <trkpt lat="43.83231" lon="4.93427">
        <ele>55.41</ele>
        <time>2017-10-05T15:31:04Z</time>
      </trkpt>
      <trkpt lat="43.83233" lon="4.93425">
        <ele>55.41</ele>
        <time>2017-10-05T15:31:05Z</time>
      </trkpt>
      <trkpt lat="43.83235" lon="4.93424">
        <ele>55.41</ele>
        <time>2017-10-05T15:31:06Z</time>
      </trkpt>
      <trkpt lat="43.83237" lon="4.93422">
        <ele>55.41</ele>
        <time>2017-10-05T15:31:07Z</time>
      </trkpt>
      <trkpt lat="43.8324" lon="4.93421">
        <ele>55.41</ele>
        <time>2017-10-05T15:31:08Z</time>
      </trkpt>
      <trkpt lat="43.83243" lon="4.93419">
        <ele>55.41</ele>
        <time>2017-10-05T15:31:09Z</time>
      </trkpt>
      <trkpt lat="43.83287" lon="4.9339">
        <ele>53.97</ele>
        <time>2017-10-05T15:31:26Z</time>
      </trkpt>
      <trkpt lat="43.83318" lon="4.93373">
        <ele>55.41</ele>
        <time>2017-10-05T15:31:39Z</time>
      </trkpt>
      <trkpt lat="43.83357" lon="4.93352">
        <ele>59.26</ele>
        <time>2017-10-05T15:31:56Z</time>
      </trkpt>
      <trkpt lat="43.83393" lon="4.93329">
        <ele>57.34</ele>
        <time>2017-10-05T15:32:10Z</time>
      </trkpt>
      <trkpt lat="43.83431" lon="4.93306">
        <ele>54.93</ele>
        <time>2017-10-05T15:32:25Z</time>
      </trkpt>
      <trkpt lat="43.83462" lon="4.9329">
        <ele>54.93</ele>
        <time>2017-10-05T15:32:38Z</time>
      </trkpt>
      <trkpt lat="43.83476" lon="4.9328">
        <ele>57.82</ele>
        <time>2017-10-05T15:32:47Z</time>
      </trkpt>
      <trkpt lat="43.83478" lon="4.93278">
        <ele>58.3</ele>
        <time>2017-10-05T15:32:49Z</time>
      </trkpt>
      <trkpt lat="43.8348" lon="4.93276">
        <ele>58.3</ele>
        <time>2017-10-05T15:32:50Z</time>
      </trkpt>
      <trkpt lat="43.83484" lon="4.93275">
        <ele>57.34</ele>
        <time>2017-10-05T15:32:51Z</time>
      </trkpt>
      <trkpt lat="43.83489" lon="4.93276">
        <ele>56.86</ele>
        <time>2017-10-05T15:32:52Z</time>
      </trkpt>
      <trkpt lat="43.83492" lon="4.93276">
        <ele>56.37</ele>
        <time>2017-10-05T15:32:53Z</time>
      </trkpt>
      <trkpt lat="43.83494" lon="4.93279">
        <ele>55.89</ele>
        <time>2017-10-05T15:32:54Z</time>
      </trkpt>
      <trkpt lat="43.83497" lon="4.93281">
        <ele>55.89</ele>
        <time>2017-10-05T15:32:55Z</time>
      </trkpt>
      <trkpt lat="43.83518" lon="4.93321">
        <ele>58.3</ele>
        <time>2017-10-05T15:33:11Z</time>
      </trkpt>
      <trkpt lat="43.83519" lon="4.93328">
        <ele>59.26</ele>
        <time>2017-10-05T15:33:14Z</time>
      </trkpt>
      <trkpt lat="43.8352" lon="4.93333">
        <ele>56.86</ele>
        <time>2017-10-05T15:33:29Z</time>
      </trkpt>
      <trkpt lat="43.83518" lon="4.93359">
        <ele>57.34</ele>
        <time>2017-10-05T15:33:47Z</time>
      </trkpt>
      <trkpt lat="43.83518" lon="4.93405">
        <ele>56.37</ele>
        <time>2017-10-05T15:34:02Z</time>
      </trkpt>
      <trkpt lat="43.8352" lon="4.93406">
        <ele>55.89</ele>
        <time>2017-10-05T15:34:03Z</time>
      </trkpt>
      <trkpt lat="43.83522" lon="4.93407">
        <ele>55.89</ele>
        <time>2017-10-05T15:34:04Z</time>
      </trkpt>
      <trkpt lat="43.83524" lon="4.93407">
        <ele>56.37</ele>
        <time>2017-10-05T15:34:05Z</time>
      </trkpt>
      <trkpt lat="43.83526" lon="4.93407">
        <ele>56.37</ele>
        <time>2017-10-05T15:34:06Z</time>
      </trkpt>
      <trkpt lat="43.83566" lon="4.9341">
        <ele>55.89</ele>
        <time>2017-10-05T15:34:26Z</time>
      </trkpt>
      <trkpt lat="43.83584" lon="4.93414">
        <ele>56.86</ele>
        <time>2017-10-05T15:34:41Z</time>
      </trkpt>
      <trkpt lat="43.8361" lon="4.93412">
        <ele>57.34</ele>
        <time>2017-10-05T15:35:00Z</time>
      </trkpt>
      <trkpt lat="43.83632" lon="4.93417">
        <ele>54.45</ele>
        <time>2017-10-05T15:35:17Z</time>
      </trkpt>
      <trkpt lat="43.83636" lon="4.9345">
        <ele>54.45</ele>
        <time>2017-10-05T15:35:28Z</time>
      </trkpt>
      <trkpt lat="43.83634" lon="4.93516">
        <ele>53.01</ele>
        <time>2017-10-05T15:35:47Z</time>
      </trkpt>
      <trkpt lat="43.83628" lon="4.93563">
        <ele>53.01</ele>
        <time>2017-10-05T15:36:02Z</time>
      </trkpt>
      <trkpt lat="43.83625" lon="4.93609">
        <ele>53.97</ele>
        <time>2017-10-05T15:36:15Z</time>
      </trkpt>
      <trkpt lat="43.83625" lon="4.93665">
        <ele>54.45</ele>
        <time>2017-10-05T15:36:27Z</time>
      </trkpt>
      <trkpt lat="43.8363" lon="4.9375">
        <ele>56.37</ele>
        <time>2017-10-05T15:36:50Z</time>
      </trkpt>
      <trkpt lat="43.8363" lon="4.93755">
        <ele>55.89</ele>
        <time>2017-10-05T15:36:52Z</time>
      </trkpt>
      <trkpt lat="43.83632" lon="4.93757">
        <ele>56.37</ele>
        <time>2017-10-05T15:36:53Z</time>
      </trkpt>
      <trkpt lat="43.83635" lon="4.93759">
        <ele>56.37</ele>
        <time>2017-10-05T15:36:54Z</time>
      </trkpt>
      <trkpt lat="43.83637" lon="4.9376">
        <ele>56.37</ele>
        <time>2017-10-05T15:36:55Z</time>
      </trkpt>
      <trkpt lat="43.8364" lon="4.93761">
        <ele>55.89</ele>
        <time>2017-10-05T15:36:56Z</time>
      </trkpt>
      <trkpt lat="43.83698" lon="4.93755">
        <ele>51.57</ele>
        <time>2017-10-05T15:37:17Z</time>
      </trkpt>
      <trkpt lat="43.83738" lon="4.93739">
        <ele>52.05</ele>
        <time>2017-10-05T15:37:34Z</time>
      </trkpt>
      <trkpt lat="43.83756" lon="4.93725">
        <ele>53.01</ele>
        <time>2017-10-05T15:37:48Z</time>
      </trkpt>
      <trkpt lat="43.83755" lon="4.93714">
        <ele>53.97</ele>
        <time>2017-10-05T15:37:55Z</time>
      </trkpt>
      <trkpt lat="43.8375" lon="4.93712">
        <ele>54.93</ele>
        <time>2017-10-05T15:38:07Z</time>
      </trkpt>
      <trkpt lat="43.8375" lon="4.93714">
        <ele>52.05</ele>
        <time>2017-10-05T15:38:42Z</time>
      </trkpt>
      <trkpt lat="43.83748" lon="4.93716">
        <ele>54.45</ele>
        <time>2017-10-05T15:39:10Z</time>
      </trkpt>
      <trkpt lat="43.8375" lon="4.93714">
        <ele>53.01</ele>
        <time>2017-10-05T15:39:36Z</time>
      </trkpt>
      <trkpt lat="43.83752" lon="4.93712">
        <ele>52.53</ele>
        <time>2017-10-05T15:39:58Z</time>
      </trkpt>
      <trkpt lat="43.83754" lon="4.93712">
        <ele>50.61</ele>
        <time>2017-10-05T15:40:25Z</time>
      </trkpt>
      <trkpt lat="43.83751" lon="4.93714">
        <ele>53.01</ele>
        <time>2017-10-05T15:40:51Z</time>
      </trkpt>
      <trkpt lat="43.83754" lon="4.93716">
        <ele>49.16</ele>
        <time>2017-10-05T15:41:11Z</time>
      </trkpt>
      <trkpt lat="43.83753" lon="4.93713">
        <ele>48.2</ele>
        <time>2017-10-05T15:41:40Z</time>
      </trkpt>
      <trkpt lat="43.83754" lon="4.93714">
        <ele>48.68</ele>
        <time>2017-10-05T15:41:58Z</time>
      </trkpt>
      <trkpt lat="43.83753" lon="4.93714">
        <ele>49.65</ele>
        <time>2017-10-05T15:42:33Z</time>
      </trkpt>
    </trkseg>
  </trk>
</gpx>